<?xml version="1.0" encoding="UTF-8" standalone="no" ?>
<gpx xmlns="http://www.topografix.com/GPX/1/1" xmlns:xsi="http://www.w3.org/2001/XMLSchema-instance" xsi:schemaLocation="http://www.topografix.com/GPX/1/1 http://www.topografix.com/GPX/1/1/gpx.xsd" version="1.1" creator="VisuGPX - https://www.visugpx.com">
  <metadata>
    <name>2017-07-11 - Obersteinbach, Petit Arnsbourg, Wasigenstein, Zigeunerfelsen, Froensbourg, Niedersteinbach</name>
    <desc><![CDATA[2017-07-11 - Obersteinbach, Petit Arnsbourg, Wasigenstein, Zigeunerfelsen, Froensbourg, Niedersteinbach - Club vosgien Colmar - RANDO2JOURS - 18 participants - Guide : Denis Vouin]]></desc>
  </metadata>
  <trk>
    <name><![CDATA[JUIL-11-17 17:25:16]]></name>
    <trkseg>
      <trkpt lat="49.03488" lon="7.69085">
        <ele>243.83</ele>
        <time>2017-07-11T07:58:08Z</time>
      </trkpt>
      <trkpt lat="49.03498" lon="7.69082">
        <ele>242.87</ele>
        <time>2017-07-11T07:59:17Z</time>
      </trkpt>
      <trkpt lat="49.03492" lon="7.69084">
        <ele>243.35</ele>
        <time>2017-07-11T07:59:51Z</time>
      </trkpt>
      <trkpt lat="49.03482" lon="7.69086">
        <ele>243.35</ele>
        <time>2017-07-11T08:00:01Z</time>
      </trkpt>
      <trkpt lat="49.03489" lon="7.69081">
        <ele>243.35</ele>
        <time>2017-07-11T08:00:15Z</time>
      </trkpt>
      <trkpt lat="49.03498" lon="7.69087">
        <ele>242.87</ele>
        <time>2017-07-11T08:01:27Z</time>
      </trkpt>
      <trkpt lat="49.03509" lon="7.69084">
        <ele>242.39</ele>
        <time>2017-07-11T08:01:45Z</time>
      </trkpt>
      <trkpt lat="49.0352" lon="7.69086">
        <ele>241.91</ele>
        <time>2017-07-11T08:01:58Z</time>
      </trkpt>
      <trkpt lat="49.03531" lon="7.69084">
        <ele>242.39</ele>
        <time>2017-07-11T08:02:09Z</time>
      </trkpt>
      <trkpt lat="49.0354" lon="7.69086">
        <ele>242.39</ele>
        <time>2017-07-11T08:02:19Z</time>
      </trkpt>
      <trkpt lat="49.0355" lon="7.69086">
        <ele>242.39</ele>
        <time>2017-07-11T08:02:32Z</time>
      </trkpt>
      <trkpt lat="49.03567" lon="7.69085">
        <ele>243.35</ele>
        <time>2017-07-11T08:02:47Z</time>
      </trkpt>
      <trkpt lat="49.03574" lon="7.69074">
        <ele>243.35</ele>
        <time>2017-07-11T08:03:21Z</time>
      </trkpt>
      <trkpt lat="49.03582" lon="7.69065">
        <ele>243.35</ele>
        <time>2017-07-11T08:03:41Z</time>
      </trkpt>
      <trkpt lat="49.03582" lon="7.6905">
        <ele>243.35</ele>
        <time>2017-07-11T08:03:53Z</time>
      </trkpt>
      <trkpt lat="49.03584" lon="7.69033">
        <ele>242.87</ele>
        <time>2017-07-11T08:04:03Z</time>
      </trkpt>
      <trkpt lat="49.03586" lon="7.69017">
        <ele>244.31</ele>
        <time>2017-07-11T08:04:13Z</time>
      </trkpt>
      <trkpt lat="49.03589" lon="7.69003">
        <ele>242.87</ele>
        <time>2017-07-11T08:04:22Z</time>
      </trkpt>
      <trkpt lat="49.03588" lon="7.68988">
        <ele>242.87</ele>
        <time>2017-07-11T08:04:32Z</time>
      </trkpt>
      <trkpt lat="49.03589" lon="7.68975">
        <ele>242.87</ele>
        <time>2017-07-11T08:04:41Z</time>
      </trkpt>
      <trkpt lat="49.03593" lon="7.68961">
        <ele>243.35</ele>
        <time>2017-07-11T08:04:48Z</time>
      </trkpt>
      <trkpt lat="49.03592" lon="7.68947">
        <ele>243.35</ele>
        <time>2017-07-11T08:04:57Z</time>
      </trkpt>
      <trkpt lat="49.03591" lon="7.68933">
        <ele>243.35</ele>
        <time>2017-07-11T08:05:09Z</time>
      </trkpt>
      <trkpt lat="49.03589" lon="7.68919">
        <ele>243.35</ele>
        <time>2017-07-11T08:05:21Z</time>
      </trkpt>
      <trkpt lat="49.03586" lon="7.68904">
        <ele>242.87</ele>
        <time>2017-07-11T08:05:31Z</time>
      </trkpt>
      <trkpt lat="49.03584" lon="7.6889">
        <ele>242.87</ele>
        <time>2017-07-11T08:05:40Z</time>
      </trkpt>
      <trkpt lat="49.03583" lon="7.68873">
        <ele>243.35</ele>
        <time>2017-07-11T08:05:48Z</time>
      </trkpt>
      <trkpt lat="49.03584" lon="7.68857">
        <ele>243.35</ele>
        <time>2017-07-11T08:05:57Z</time>
      </trkpt>
      <trkpt lat="49.03586" lon="7.68842">
        <ele>243.35</ele>
        <time>2017-07-11T08:06:05Z</time>
      </trkpt>
      <trkpt lat="49.0359" lon="7.68829">
        <ele>242.87</ele>
        <time>2017-07-11T08:06:13Z</time>
      </trkpt>
      <trkpt lat="49.03594" lon="7.68819">
        <ele>243.83</ele>
        <time>2017-07-11T08:06:20Z</time>
      </trkpt>
      <trkpt lat="49.03597" lon="7.68807">
        <ele>243.35</ele>
        <time>2017-07-11T08:06:28Z</time>
      </trkpt>
      <trkpt lat="49.036" lon="7.68793">
        <ele>243.35</ele>
        <time>2017-07-11T08:06:36Z</time>
      </trkpt>
      <trkpt lat="49.03603" lon="7.6878">
        <ele>243.35</ele>
        <time>2017-07-11T08:06:43Z</time>
      </trkpt>
      <trkpt lat="49.03603" lon="7.68765">
        <ele>243.35</ele>
        <time>2017-07-11T08:06:52Z</time>
      </trkpt>
      <trkpt lat="49.03604" lon="7.68751">
        <ele>243.83</ele>
        <time>2017-07-11T08:06:59Z</time>
      </trkpt>
      <trkpt lat="49.03604" lon="7.68738">
        <ele>243.83</ele>
        <time>2017-07-11T08:07:06Z</time>
      </trkpt>
      <trkpt lat="49.03605" lon="7.68726">
        <ele>242.87</ele>
        <time>2017-07-11T08:07:26Z</time>
      </trkpt>
      <trkpt lat="49.03607" lon="7.68712">
        <ele>243.35</ele>
        <time>2017-07-11T08:07:34Z</time>
      </trkpt>
      <trkpt lat="49.03607" lon="7.68698">
        <ele>243.83</ele>
        <time>2017-07-11T08:07:43Z</time>
      </trkpt>
      <trkpt lat="49.03609" lon="7.68684">
        <ele>243.35</ele>
        <time>2017-07-11T08:07:51Z</time>
      </trkpt>
      <trkpt lat="49.03611" lon="7.6867">
        <ele>244.31</ele>
        <time>2017-07-11T08:07:59Z</time>
      </trkpt>
      <trkpt lat="49.03614" lon="7.68656">
        <ele>243.83</ele>
        <time>2017-07-11T08:08:09Z</time>
      </trkpt>
      <trkpt lat="49.03616" lon="7.68641">
        <ele>243.83</ele>
        <time>2017-07-11T08:08:17Z</time>
      </trkpt>
      <trkpt lat="49.03621" lon="7.68628">
        <ele>244.31</ele>
        <time>2017-07-11T08:08:38Z</time>
      </trkpt>
      <trkpt lat="49.03622" lon="7.68613">
        <ele>243.83</ele>
        <time>2017-07-11T08:08:49Z</time>
      </trkpt>
      <trkpt lat="49.03626" lon="7.68599">
        <ele>243.83</ele>
        <time>2017-07-11T08:08:59Z</time>
      </trkpt>
      <trkpt lat="49.03631" lon="7.68584">
        <ele>244.31</ele>
        <time>2017-07-11T08:09:10Z</time>
      </trkpt>
      <trkpt lat="49.03632" lon="7.68582">
        <ele>244.31</ele>
        <time>2017-07-11T08:09:26Z</time>
      </trkpt>
      <trkpt lat="49.03631" lon="7.68595">
        <ele>243.83</ele>
        <time>2017-07-11T08:09:36Z</time>
      </trkpt>
      <trkpt lat="49.0363" lon="7.686">
        <ele>243.83</ele>
        <time>2017-07-11T08:09:48Z</time>
      </trkpt>
      <trkpt lat="49.03626" lon="7.6861">
        <ele>243.83</ele>
        <time>2017-07-11T08:10:00Z</time>
      </trkpt>
      <trkpt lat="49.03622" lon="7.68623">
        <ele>243.83</ele>
        <time>2017-07-11T08:10:08Z</time>
      </trkpt>
      <trkpt lat="49.03629" lon="7.68632">
        <ele>243.35</ele>
        <time>2017-07-11T08:10:16Z</time>
      </trkpt>
      <trkpt lat="49.03639" lon="7.68636">
        <ele>243.83</ele>
        <time>2017-07-11T08:10:26Z</time>
      </trkpt>
      <trkpt lat="49.03649" lon="7.68636">
        <ele>244.79</ele>
        <time>2017-07-11T08:10:33Z</time>
      </trkpt>
      <trkpt lat="49.0366" lon="7.68634">
        <ele>245.27</ele>
        <time>2017-07-11T08:10:41Z</time>
      </trkpt>
      <trkpt lat="49.03667" lon="7.68629">
        <ele>245.75</ele>
        <time>2017-07-11T08:10:50Z</time>
      </trkpt>
      <trkpt lat="49.03677" lon="7.68625">
        <ele>244.79</ele>
        <time>2017-07-11T08:11:05Z</time>
      </trkpt>
      <trkpt lat="49.03684" lon="7.68626">
        <ele>247.68</ele>
        <time>2017-07-11T08:11:16Z</time>
      </trkpt>
      <trkpt lat="49.03693" lon="7.68627">
        <ele>249.6</ele>
        <time>2017-07-11T08:11:37Z</time>
      </trkpt>
      <trkpt lat="49.03706" lon="7.68624">
        <ele>254.41</ele>
        <time>2017-07-11T08:12:02Z</time>
      </trkpt>
      <trkpt lat="49.03714" lon="7.6862">
        <ele>260.17</ele>
        <time>2017-07-11T08:12:32Z</time>
      </trkpt>
      <trkpt lat="49.03727" lon="7.68621">
        <ele>263.54</ele>
        <time>2017-07-11T08:12:52Z</time>
      </trkpt>
      <trkpt lat="49.03728" lon="7.68621">
        <ele>264.5</ele>
        <time>2017-07-11T08:14:33Z</time>
      </trkpt>
      <trkpt lat="49.03742" lon="7.68643">
        <ele>265.46</ele>
        <time>2017-07-11T08:14:50Z</time>
      </trkpt>
      <trkpt lat="49.03758" lon="7.68666">
        <ele>266.42</ele>
        <time>2017-07-11T08:15:11Z</time>
      </trkpt>
      <trkpt lat="49.03776" lon="7.68683">
        <ele>267.86</ele>
        <time>2017-07-11T08:15:27Z</time>
      </trkpt>
      <trkpt lat="49.03789" lon="7.68696">
        <ele>269.79</ele>
        <time>2017-07-11T08:15:46Z</time>
      </trkpt>
      <trkpt lat="49.03814" lon="7.68711">
        <ele>271.71</ele>
        <time>2017-07-11T08:16:16Z</time>
      </trkpt>
      <trkpt lat="49.03832" lon="7.68724">
        <ele>273.63</ele>
        <time>2017-07-11T08:16:35Z</time>
      </trkpt>
      <trkpt lat="49.03851" lon="7.68736">
        <ele>275.07</ele>
        <time>2017-07-11T08:16:54Z</time>
      </trkpt>
      <trkpt lat="49.03866" lon="7.68738">
        <ele>277.48</ele>
        <time>2017-07-11T08:17:13Z</time>
      </trkpt>
      <trkpt lat="49.03875" lon="7.68751">
        <ele>278.92</ele>
        <time>2017-07-11T08:17:29Z</time>
      </trkpt>
      <trkpt lat="49.03889" lon="7.68766">
        <ele>280.36</ele>
        <time>2017-07-11T08:17:49Z</time>
      </trkpt>
      <trkpt lat="49.03893" lon="7.68771">
        <ele>281.8</ele>
        <time>2017-07-11T08:18:41Z</time>
      </trkpt>
      <trkpt lat="49.03896" lon="7.68778">
        <ele>287.57</ele>
        <time>2017-07-11T08:19:14Z</time>
      </trkpt>
      <trkpt lat="49.03901" lon="7.68797">
        <ele>287.09</ele>
        <time>2017-07-11T08:19:28Z</time>
      </trkpt>
      <trkpt lat="49.03907" lon="7.68823">
        <ele>288.53</ele>
        <time>2017-07-11T08:19:40Z</time>
      </trkpt>
      <trkpt lat="49.03914" lon="7.68844">
        <ele>290.46</ele>
        <time>2017-07-11T08:20:00Z</time>
      </trkpt>
      <trkpt lat="49.03913" lon="7.68857">
        <ele>292.38</ele>
        <time>2017-07-11T08:20:15Z</time>
      </trkpt>
      <trkpt lat="49.03921" lon="7.68879">
        <ele>293.82</ele>
        <time>2017-07-11T08:20:29Z</time>
      </trkpt>
      <trkpt lat="49.03921" lon="7.68895">
        <ele>295.74</ele>
        <time>2017-07-11T08:20:45Z</time>
      </trkpt>
      <trkpt lat="49.03926" lon="7.68913">
        <ele>298.15</ele>
        <time>2017-07-11T08:21:02Z</time>
      </trkpt>
      <trkpt lat="49.03925" lon="7.68936">
        <ele>301.03</ele>
        <time>2017-07-11T08:21:20Z</time>
      </trkpt>
      <trkpt lat="49.03922" lon="7.68965">
        <ele>302.47</ele>
        <time>2017-07-11T08:21:42Z</time>
      </trkpt>
      <trkpt lat="49.03915" lon="7.68991">
        <ele>305.84</ele>
        <time>2017-07-11T08:22:05Z</time>
      </trkpt>
      <trkpt lat="49.03912" lon="7.69005">
        <ele>308.24</ele>
        <time>2017-07-11T08:22:21Z</time>
      </trkpt>
      <trkpt lat="49.03906" lon="7.69019">
        <ele>308.24</ele>
        <time>2017-07-11T08:22:47Z</time>
      </trkpt>
      <trkpt lat="49.03895" lon="7.69028">
        <ele>307.76</ele>
        <time>2017-07-11T08:23:04Z</time>
      </trkpt>
      <trkpt lat="49.03887" lon="7.69038">
        <ele>308.72</ele>
        <time>2017-07-11T08:23:16Z</time>
      </trkpt>
      <trkpt lat="49.03886" lon="7.69045">
        <ele>311.6</ele>
        <time>2017-07-11T08:23:40Z</time>
      </trkpt>
      <trkpt lat="49.03884" lon="7.69047">
        <ele>314.97</ele>
        <time>2017-07-11T08:24:54Z</time>
      </trkpt>
      <trkpt lat="49.03873" lon="7.69055">
        <ele>317.37</ele>
        <time>2017-07-11T08:25:06Z</time>
      </trkpt>
      <trkpt lat="49.03867" lon="7.69037">
        <ele>321.7</ele>
        <time>2017-07-11T08:25:58Z</time>
      </trkpt>
      <trkpt lat="49.03874" lon="7.69038">
        <ele>322.18</ele>
        <time>2017-07-11T08:26:57Z</time>
      </trkpt>
      <trkpt lat="49.03878" lon="7.69039">
        <ele>322.66</ele>
        <time>2017-07-11T08:27:21Z</time>
      </trkpt>
      <trkpt lat="49.03873" lon="7.69034">
        <ele>321.7</ele>
        <time>2017-07-11T08:28:05Z</time>
      </trkpt>
      <trkpt lat="49.03869" lon="7.69034">
        <ele>318.81</ele>
        <time>2017-07-11T08:30:55Z</time>
      </trkpt>
      <trkpt lat="49.03866" lon="7.69034">
        <ele>313.05</ele>
        <time>2017-07-11T08:31:28Z</time>
      </trkpt>
      <trkpt lat="49.03877" lon="7.6904">
        <ele>308.72</ele>
        <time>2017-07-11T08:32:16Z</time>
      </trkpt>
      <trkpt lat="49.03883" lon="7.69052">
        <ele>307.28</ele>
        <time>2017-07-11T08:32:38Z</time>
      </trkpt>
      <trkpt lat="49.03884" lon="7.6906">
        <ele>307.76</ele>
        <time>2017-07-11T08:33:47Z</time>
      </trkpt>
      <trkpt lat="49.03883" lon="7.69049">
        <ele>305.84</ele>
        <time>2017-07-11T08:35:09Z</time>
      </trkpt>
      <trkpt lat="49.03889" lon="7.69032">
        <ele>303.91</ele>
        <time>2017-07-11T08:35:35Z</time>
      </trkpt>
      <trkpt lat="49.03901" lon="7.69019">
        <ele>304.39</ele>
        <time>2017-07-11T08:35:48Z</time>
      </trkpt>
      <trkpt lat="49.03915" lon="7.69015">
        <ele>304.88</ele>
        <time>2017-07-11T08:38:02Z</time>
      </trkpt>
      <trkpt lat="49.03929" lon="7.69006">
        <ele>305.84</ele>
        <time>2017-07-11T08:38:19Z</time>
      </trkpt>
      <trkpt lat="49.03943" lon="7.68977">
        <ele>306.32</ele>
        <time>2017-07-11T08:38:37Z</time>
      </trkpt>
      <trkpt lat="49.03947" lon="7.68957">
        <ele>309.2</ele>
        <time>2017-07-11T08:38:56Z</time>
      </trkpt>
      <trkpt lat="49.03952" lon="7.68929">
        <ele>310.16</ele>
        <time>2017-07-11T08:39:16Z</time>
      </trkpt>
      <trkpt lat="49.03955" lon="7.6892">
        <ele>309.68</ele>
        <time>2017-07-11T08:41:01Z</time>
      </trkpt>
      <trkpt lat="49.03957" lon="7.68905">
        <ele>311.12</ele>
        <time>2017-07-11T08:42:12Z</time>
      </trkpt>
      <trkpt lat="49.03969" lon="7.68874">
        <ele>313.53</ele>
        <time>2017-07-11T08:42:37Z</time>
      </trkpt>
      <trkpt lat="49.03971" lon="7.68852">
        <ele>316.41</ele>
        <time>2017-07-11T08:43:06Z</time>
      </trkpt>
      <trkpt lat="49.03976" lon="7.688">
        <ele>319.78</ele>
        <time>2017-07-11T08:43:37Z</time>
      </trkpt>
      <trkpt lat="49.03973" lon="7.68765">
        <ele>322.66</ele>
        <time>2017-07-11T08:44:09Z</time>
      </trkpt>
      <trkpt lat="49.03956" lon="7.68735">
        <ele>326.02</ele>
        <time>2017-07-11T08:44:44Z</time>
      </trkpt>
      <trkpt lat="49.03953" lon="7.68709">
        <ele>332.75</ele>
        <time>2017-07-11T08:45:27Z</time>
      </trkpt>
      <trkpt lat="49.03969" lon="7.68713">
        <ele>339.48</ele>
        <time>2017-07-11T08:46:13Z</time>
      </trkpt>
      <trkpt lat="49.03965" lon="7.68696">
        <ele>341.89</ele>
        <time>2017-07-11T08:47:01Z</time>
      </trkpt>
      <trkpt lat="49.03951" lon="7.68685">
        <ele>341.41</ele>
        <time>2017-07-11T08:47:19Z</time>
      </trkpt>
      <trkpt lat="49.03935" lon="7.68668">
        <ele>340.44</ele>
        <time>2017-07-11T08:47:39Z</time>
      </trkpt>
      <trkpt lat="49.03922" lon="7.68654">
        <ele>339.48</ele>
        <time>2017-07-11T08:47:54Z</time>
      </trkpt>
      <trkpt lat="49.03905" lon="7.68645">
        <ele>339.48</ele>
        <time>2017-07-11T08:48:08Z</time>
      </trkpt>
      <trkpt lat="49.03892" lon="7.68636">
        <ele>338.52</ele>
        <time>2017-07-11T08:48:20Z</time>
      </trkpt>
      <trkpt lat="49.03882" lon="7.68624">
        <ele>338.52</ele>
        <time>2017-07-11T08:48:34Z</time>
      </trkpt>
      <trkpt lat="49.03864" lon="7.68603">
        <ele>338.04</ele>
        <time>2017-07-11T08:48:51Z</time>
      </trkpt>
      <trkpt lat="49.03851" lon="7.68594">
        <ele>337.56</ele>
        <time>2017-07-11T08:49:03Z</time>
      </trkpt>
      <trkpt lat="49.03837" lon="7.68584">
        <ele>337.08</ele>
        <time>2017-07-11T08:49:16Z</time>
      </trkpt>
      <trkpt lat="49.03829" lon="7.68574">
        <ele>337.08</ele>
        <time>2017-07-11T08:49:27Z</time>
      </trkpt>
      <trkpt lat="49.0382" lon="7.6857">
        <ele>336.6</ele>
        <time>2017-07-11T08:49:40Z</time>
      </trkpt>
      <trkpt lat="49.03812" lon="7.68555">
        <ele>335.64</ele>
        <time>2017-07-11T08:50:08Z</time>
      </trkpt>
      <trkpt lat="49.03815" lon="7.68553">
        <ele>335.16</ele>
        <time>2017-07-11T08:50:42Z</time>
      </trkpt>
      <trkpt lat="49.03821" lon="7.68544">
        <ele>334.68</ele>
        <time>2017-07-11T08:51:02Z</time>
      </trkpt>
      <trkpt lat="49.03831" lon="7.68531">
        <ele>332.75</ele>
        <time>2017-07-11T08:51:17Z</time>
      </trkpt>
      <trkpt lat="49.03835" lon="7.68509">
        <ele>331.31</ele>
        <time>2017-07-11T08:51:30Z</time>
      </trkpt>
      <trkpt lat="49.03838" lon="7.68484">
        <ele>330.83</ele>
        <time>2017-07-11T08:51:43Z</time>
      </trkpt>
      <trkpt lat="49.03838" lon="7.68465">
        <ele>329.87</ele>
        <time>2017-07-11T08:51:54Z</time>
      </trkpt>
      <trkpt lat="49.03837" lon="7.68443">
        <ele>328.43</ele>
        <time>2017-07-11T08:52:07Z</time>
      </trkpt>
      <trkpt lat="49.03835" lon="7.68425">
        <ele>327.95</ele>
        <time>2017-07-11T08:52:18Z</time>
      </trkpt>
      <trkpt lat="49.03835" lon="7.68407">
        <ele>326.99</ele>
        <time>2017-07-11T08:52:30Z</time>
      </trkpt>
      <trkpt lat="49.03832" lon="7.68391">
        <ele>326.02</ele>
        <time>2017-07-11T08:52:40Z</time>
      </trkpt>
      <trkpt lat="49.0383" lon="7.68376">
        <ele>325.06</ele>
        <time>2017-07-11T08:52:52Z</time>
      </trkpt>
      <trkpt lat="49.03837" lon="7.68364">
        <ele>324.1</ele>
        <time>2017-07-11T08:53:06Z</time>
      </trkpt>
      <trkpt lat="49.03848" lon="7.68363">
        <ele>320.74</ele>
        <time>2017-07-11T08:53:19Z</time>
      </trkpt>
      <trkpt lat="49.03859" lon="7.68363">
        <ele>321.22</ele>
        <time>2017-07-11T08:53:29Z</time>
      </trkpt>
      <trkpt lat="49.0387" lon="7.68361">
        <ele>320.26</ele>
        <time>2017-07-11T08:53:40Z</time>
      </trkpt>
      <trkpt lat="49.03885" lon="7.68363">
        <ele>319.3</ele>
        <time>2017-07-11T08:53:53Z</time>
      </trkpt>
      <trkpt lat="49.03895" lon="7.68365">
        <ele>317.85</ele>
        <time>2017-07-11T08:54:07Z</time>
      </trkpt>
      <trkpt lat="49.03907" lon="7.68372">
        <ele>316.89</ele>
        <time>2017-07-11T08:54:20Z</time>
      </trkpt>
      <trkpt lat="49.03921" lon="7.68375">
        <ele>315.93</ele>
        <time>2017-07-11T08:54:32Z</time>
      </trkpt>
      <trkpt lat="49.03938" lon="7.68377">
        <ele>314.97</ele>
        <time>2017-07-11T08:54:46Z</time>
      </trkpt>
      <trkpt lat="49.03952" lon="7.68379">
        <ele>314.49</ele>
        <time>2017-07-11T08:54:57Z</time>
      </trkpt>
      <trkpt lat="49.03964" lon="7.68384">
        <ele>316.89</ele>
        <time>2017-07-11T08:55:17Z</time>
      </trkpt>
      <trkpt lat="49.03983" lon="7.68397">
        <ele>316.89</ele>
        <time>2017-07-11T08:55:47Z</time>
      </trkpt>
      <trkpt lat="49.04002" lon="7.6841">
        <ele>316.89</ele>
        <time>2017-07-11T08:56:03Z</time>
      </trkpt>
      <trkpt lat="49.04012" lon="7.68442">
        <ele>323.62</ele>
        <time>2017-07-11T08:56:34Z</time>
      </trkpt>
      <trkpt lat="49.04021" lon="7.6846">
        <ele>327.47</ele>
        <time>2017-07-11T08:56:57Z</time>
      </trkpt>
      <trkpt lat="49.04045" lon="7.68483">
        <ele>332.75</ele>
        <time>2017-07-11T08:57:28Z</time>
      </trkpt>
      <trkpt lat="49.04058" lon="7.68502">
        <ele>336.6</ele>
        <time>2017-07-11T08:57:57Z</time>
      </trkpt>
      <trkpt lat="49.0407" lon="7.68533">
        <ele>340.44</ele>
        <time>2017-07-11T08:58:31Z</time>
      </trkpt>
      <trkpt lat="49.0408" lon="7.68554">
        <ele>343.81</ele>
        <time>2017-07-11T08:58:56Z</time>
      </trkpt>
      <trkpt lat="49.0412" lon="7.68592">
        <ele>348.62</ele>
        <time>2017-07-11T08:59:23Z</time>
      </trkpt>
      <trkpt lat="49.04134" lon="7.68611">
        <ele>351.5</ele>
        <time>2017-07-11T08:59:46Z</time>
      </trkpt>
      <trkpt lat="49.04142" lon="7.68635">
        <ele>354.38</ele>
        <time>2017-07-11T09:00:12Z</time>
      </trkpt>
      <trkpt lat="49.04144" lon="7.68658">
        <ele>354.86</ele>
        <time>2017-07-11T09:00:27Z</time>
      </trkpt>
      <trkpt lat="49.04171" lon="7.68691">
        <ele>356.79</ele>
        <time>2017-07-11T09:00:52Z</time>
      </trkpt>
      <trkpt lat="49.04179" lon="7.68718">
        <ele>360.63</ele>
        <time>2017-07-11T09:01:19Z</time>
      </trkpt>
      <trkpt lat="49.04179" lon="7.6875">
        <ele>364.96</ele>
        <time>2017-07-11T09:01:45Z</time>
      </trkpt>
      <trkpt lat="49.04184" lon="7.68779">
        <ele>367.36</ele>
        <time>2017-07-11T09:02:08Z</time>
      </trkpt>
      <trkpt lat="49.042" lon="7.68809">
        <ele>371.21</ele>
        <time>2017-07-11T09:02:42Z</time>
      </trkpt>
      <trkpt lat="49.04203" lon="7.6881">
        <ele>369.76</ele>
        <time>2017-07-11T09:08:16Z</time>
      </trkpt>
      <trkpt lat="49.04208" lon="7.68836">
        <ele>371.21</ele>
        <time>2017-07-11T09:12:32Z</time>
      </trkpt>
      <trkpt lat="49.04212" lon="7.68859">
        <ele>371.69</ele>
        <time>2017-07-11T09:12:51Z</time>
      </trkpt>
      <trkpt lat="49.04226" lon="7.68886">
        <ele>372.65</ele>
        <time>2017-07-11T09:13:08Z</time>
      </trkpt>
      <trkpt lat="49.04239" lon="7.68909">
        <ele>373.13</ele>
        <time>2017-07-11T09:13:25Z</time>
      </trkpt>
      <trkpt lat="49.04253" lon="7.68935">
        <ele>374.57</ele>
        <time>2017-07-11T09:13:45Z</time>
      </trkpt>
      <trkpt lat="49.04256" lon="7.68953">
        <ele>376.49</ele>
        <time>2017-07-11T09:14:01Z</time>
      </trkpt>
      <trkpt lat="49.04257" lon="7.6897">
        <ele>377.45</ele>
        <time>2017-07-11T09:14:19Z</time>
      </trkpt>
      <trkpt lat="49.04244" lon="7.6898">
        <ele>376.97</ele>
        <time>2017-07-11T09:14:31Z</time>
      </trkpt>
      <trkpt lat="49.04236" lon="7.6899">
        <ele>376.97</ele>
        <time>2017-07-11T09:14:43Z</time>
      </trkpt>
      <trkpt lat="49.04224" lon="7.69003">
        <ele>376.97</ele>
        <time>2017-07-11T09:14:55Z</time>
      </trkpt>
      <trkpt lat="49.04217" lon="7.69014">
        <ele>376.97</ele>
        <time>2017-07-11T09:15:03Z</time>
      </trkpt>
      <trkpt lat="49.04207" lon="7.69022">
        <ele>376.49</ele>
        <time>2017-07-11T09:15:14Z</time>
      </trkpt>
      <trkpt lat="49.04196" lon="7.69028">
        <ele>376.01</ele>
        <time>2017-07-11T09:15:24Z</time>
      </trkpt>
      <trkpt lat="49.04184" lon="7.69039">
        <ele>375.53</ele>
        <time>2017-07-11T09:15:35Z</time>
      </trkpt>
      <trkpt lat="49.0418" lon="7.69046">
        <ele>375.05</ele>
        <time>2017-07-11T09:15:45Z</time>
      </trkpt>
      <trkpt lat="49.04176" lon="7.69058">
        <ele>371.69</ele>
        <time>2017-07-11T09:16:38Z</time>
      </trkpt>
      <trkpt lat="49.04175" lon="7.69069">
        <ele>368.8</ele>
        <time>2017-07-11T09:16:51Z</time>
      </trkpt>
      <trkpt lat="49.04172" lon="7.69084">
        <ele>365.44</ele>
        <time>2017-07-11T09:17:04Z</time>
      </trkpt>
      <trkpt lat="49.04171" lon="7.69097">
        <ele>360.63</ele>
        <time>2017-07-11T09:17:26Z</time>
      </trkpt>
      <trkpt lat="49.04164" lon="7.69119">
        <ele>359.19</ele>
        <time>2017-07-11T09:17:39Z</time>
      </trkpt>
      <trkpt lat="49.04156" lon="7.69135">
        <ele>356.79</ele>
        <time>2017-07-11T09:18:01Z</time>
      </trkpt>
      <trkpt lat="49.04149" lon="7.69151">
        <ele>354.86</ele>
        <time>2017-07-11T09:18:15Z</time>
      </trkpt>
      <trkpt lat="49.04143" lon="7.69169">
        <ele>353.42</ele>
        <time>2017-07-11T09:18:28Z</time>
      </trkpt>
      <trkpt lat="49.0414" lon="7.69191">
        <ele>349.58</ele>
        <time>2017-07-11T09:18:55Z</time>
      </trkpt>
      <trkpt lat="49.04137" lon="7.69209">
        <ele>346.21</ele>
        <time>2017-07-11T09:19:15Z</time>
      </trkpt>
      <trkpt lat="49.04135" lon="7.69225">
        <ele>344.29</ele>
        <time>2017-07-11T09:19:35Z</time>
      </trkpt>
      <trkpt lat="49.04137" lon="7.69246">
        <ele>340.92</ele>
        <time>2017-07-11T09:19:52Z</time>
      </trkpt>
      <trkpt lat="49.04137" lon="7.69263">
        <ele>338.04</ele>
        <time>2017-07-11T09:20:06Z</time>
      </trkpt>
      <trkpt lat="49.04139" lon="7.69284">
        <ele>336.6</ele>
        <time>2017-07-11T09:20:21Z</time>
      </trkpt>
      <trkpt lat="49.0414" lon="7.69299">
        <ele>334.2</ele>
        <time>2017-07-11T09:20:33Z</time>
      </trkpt>
      <trkpt lat="49.04139" lon="7.69316">
        <ele>331.79</ele>
        <time>2017-07-11T09:20:46Z</time>
      </trkpt>
      <trkpt lat="49.04143" lon="7.69338">
        <ele>330.35</ele>
        <time>2017-07-11T09:21:00Z</time>
      </trkpt>
      <trkpt lat="49.04142" lon="7.69359">
        <ele>328.43</ele>
        <time>2017-07-11T09:21:12Z</time>
      </trkpt>
      <trkpt lat="49.04142" lon="7.69375">
        <ele>326.5</ele>
        <time>2017-07-11T09:21:28Z</time>
      </trkpt>
      <trkpt lat="49.0414" lon="7.69398">
        <ele>323.62</ele>
        <time>2017-07-11T09:21:45Z</time>
      </trkpt>
      <trkpt lat="49.04135" lon="7.69411">
        <ele>321.7</ele>
        <time>2017-07-11T09:21:55Z</time>
      </trkpt>
      <trkpt lat="49.04134" lon="7.69426">
        <ele>319.3</ele>
        <time>2017-07-11T09:22:06Z</time>
      </trkpt>
      <trkpt lat="49.04129" lon="7.69439">
        <ele>316.89</ele>
        <time>2017-07-11T09:22:17Z</time>
      </trkpt>
      <trkpt lat="49.04121" lon="7.69449">
        <ele>314.97</ele>
        <time>2017-07-11T09:22:27Z</time>
      </trkpt>
      <trkpt lat="49.04112" lon="7.69455">
        <ele>313.53</ele>
        <time>2017-07-11T09:22:37Z</time>
      </trkpt>
      <trkpt lat="49.04103" lon="7.69462">
        <ele>311.6</ele>
        <time>2017-07-11T09:22:47Z</time>
      </trkpt>
      <trkpt lat="49.04095" lon="7.69467">
        <ele>309.68</ele>
        <time>2017-07-11T09:22:58Z</time>
      </trkpt>
      <trkpt lat="49.04085" lon="7.69468">
        <ele>307.28</ele>
        <time>2017-07-11T09:23:11Z</time>
      </trkpt>
      <trkpt lat="49.04073" lon="7.69474">
        <ele>306.32</ele>
        <time>2017-07-11T09:23:23Z</time>
      </trkpt>
      <trkpt lat="49.04064" lon="7.69476">
        <ele>304.39</ele>
        <time>2017-07-11T09:23:35Z</time>
      </trkpt>
      <trkpt lat="49.04053" lon="7.69477">
        <ele>302.95</ele>
        <time>2017-07-11T09:23:48Z</time>
      </trkpt>
      <trkpt lat="49.04044" lon="7.69476">
        <ele>301.03</ele>
        <time>2017-07-11T09:24:03Z</time>
      </trkpt>
      <trkpt lat="49.0404" lon="7.69472">
        <ele>301.03</ele>
        <time>2017-07-11T09:25:58Z</time>
      </trkpt>
      <trkpt lat="49.04051" lon="7.69473">
        <ele>303.91</ele>
        <time>2017-07-11T09:26:21Z</time>
      </trkpt>
      <trkpt lat="49.04051" lon="7.69472">
        <ele>301.99</ele>
        <time>2017-07-11T09:28:09Z</time>
      </trkpt>
      <trkpt lat="49.04031" lon="7.69474">
        <ele>299.11</ele>
        <time>2017-07-11T09:28:30Z</time>
      </trkpt>
      <trkpt lat="49.04022" lon="7.69469">
        <ele>296.7</ele>
        <time>2017-07-11T09:29:25Z</time>
      </trkpt>
      <trkpt lat="49.03995" lon="7.69475">
        <ele>295.26</ele>
        <time>2017-07-11T09:29:46Z</time>
      </trkpt>
      <trkpt lat="49.03982" lon="7.69465">
        <ele>293.82</ele>
        <time>2017-07-11T09:30:02Z</time>
      </trkpt>
      <trkpt lat="49.03976" lon="7.69458">
        <ele>291.42</ele>
        <time>2017-07-11T09:30:17Z</time>
      </trkpt>
      <trkpt lat="49.03954" lon="7.69444">
        <ele>289.01</ele>
        <time>2017-07-11T09:30:35Z</time>
      </trkpt>
      <trkpt lat="49.03934" lon="7.69439">
        <ele>288.53</ele>
        <time>2017-07-11T09:30:49Z</time>
      </trkpt>
      <trkpt lat="49.03917" lon="7.69426">
        <ele>286.13</ele>
        <time>2017-07-11T09:31:12Z</time>
      </trkpt>
      <trkpt lat="49.03908" lon="7.69411">
        <ele>284.69</ele>
        <time>2017-07-11T09:31:32Z</time>
      </trkpt>
      <trkpt lat="49.03904" lon="7.69401">
        <ele>283.73</ele>
        <time>2017-07-11T09:31:44Z</time>
      </trkpt>
      <trkpt lat="49.03901" lon="7.6939">
        <ele>282.77</ele>
        <time>2017-07-11T09:31:57Z</time>
      </trkpt>
      <trkpt lat="49.03896" lon="7.69386">
        <ele>281.32</ele>
        <time>2017-07-11T09:32:18Z</time>
      </trkpt>
      <trkpt lat="49.03889" lon="7.69383">
        <ele>277.48</ele>
        <time>2017-07-11T09:33:19Z</time>
      </trkpt>
      <trkpt lat="49.03883" lon="7.69376">
        <ele>277</ele>
        <time>2017-07-11T09:34:19Z</time>
      </trkpt>
      <trkpt lat="49.0389" lon="7.69385">
        <ele>276.04</ele>
        <time>2017-07-11T09:34:51Z</time>
      </trkpt>
      <trkpt lat="49.03887" lon="7.69411">
        <ele>272.67</ele>
        <time>2017-07-11T09:35:13Z</time>
      </trkpt>
      <trkpt lat="49.03892" lon="7.69435">
        <ele>271.23</ele>
        <time>2017-07-11T09:35:30Z</time>
      </trkpt>
      <trkpt lat="49.03902" lon="7.69451">
        <ele>271.23</ele>
        <time>2017-07-11T09:35:43Z</time>
      </trkpt>
      <trkpt lat="49.03914" lon="7.69484">
        <ele>271.71</ele>
        <time>2017-07-11T09:36:07Z</time>
      </trkpt>
      <trkpt lat="49.03928" lon="7.69504">
        <ele>272.19</ele>
        <time>2017-07-11T09:36:28Z</time>
      </trkpt>
      <trkpt lat="49.03941" lon="7.69525">
        <ele>273.15</ele>
        <time>2017-07-11T09:37:22Z</time>
      </trkpt>
      <trkpt lat="49.03942" lon="7.69535">
        <ele>271.71</ele>
        <time>2017-07-11T09:39:36Z</time>
      </trkpt>
      <trkpt lat="49.03949" lon="7.6955">
        <ele>268.35</ele>
        <time>2017-07-11T09:39:53Z</time>
      </trkpt>
      <trkpt lat="49.03953" lon="7.69571">
        <ele>264.5</ele>
        <time>2017-07-11T09:40:08Z</time>
      </trkpt>
      <trkpt lat="49.03955" lon="7.69594">
        <ele>262.58</ele>
        <time>2017-07-11T09:40:28Z</time>
      </trkpt>
      <trkpt lat="49.03952" lon="7.6961">
        <ele>260.65</ele>
        <time>2017-07-11T09:40:38Z</time>
      </trkpt>
      <trkpt lat="49.03949" lon="7.69628">
        <ele>259.21</ele>
        <time>2017-07-11T09:40:47Z</time>
      </trkpt>
      <trkpt lat="49.03955" lon="7.69643">
        <ele>258.25</ele>
        <time>2017-07-11T09:40:57Z</time>
      </trkpt>
      <trkpt lat="49.03958" lon="7.69661">
        <ele>256.33</ele>
        <time>2017-07-11T09:41:10Z</time>
      </trkpt>
      <trkpt lat="49.03954" lon="7.69681">
        <ele>254.41</ele>
        <time>2017-07-11T09:41:21Z</time>
      </trkpt>
      <trkpt lat="49.03948" lon="7.69702">
        <ele>252.48</ele>
        <time>2017-07-11T09:41:32Z</time>
      </trkpt>
      <trkpt lat="49.03953" lon="7.69713">
        <ele>248.16</ele>
        <time>2017-07-11T09:41:48Z</time>
      </trkpt>
      <trkpt lat="49.03957" lon="7.69728">
        <ele>245.27</ele>
        <time>2017-07-11T09:41:59Z</time>
      </trkpt>
      <trkpt lat="49.03966" lon="7.69734">
        <ele>244.79</ele>
        <time>2017-07-11T09:42:13Z</time>
      </trkpt>
      <trkpt lat="49.0398" lon="7.69738">
        <ele>244.31</ele>
        <time>2017-07-11T09:42:30Z</time>
      </trkpt>
      <trkpt lat="49.03989" lon="7.69748">
        <ele>244.79</ele>
        <time>2017-07-11T09:42:38Z</time>
      </trkpt>
      <trkpt lat="49.03996" lon="7.69756">
        <ele>244.79</ele>
        <time>2017-07-11T09:42:43Z</time>
      </trkpt>
      <trkpt lat="49.04007" lon="7.69759">
        <ele>244.31</ele>
        <time>2017-07-11T09:42:52Z</time>
      </trkpt>
      <trkpt lat="49.04016" lon="7.69764">
        <ele>244.79</ele>
        <time>2017-07-11T09:43:00Z</time>
      </trkpt>
      <trkpt lat="49.04022" lon="7.69769">
        <ele>245.75</ele>
        <time>2017-07-11T09:43:07Z</time>
      </trkpt>
      <trkpt lat="49.04025" lon="7.69781">
        <ele>245.27</ele>
        <time>2017-07-11T09:43:19Z</time>
      </trkpt>
      <trkpt lat="49.04032" lon="7.69786">
        <ele>246.23</ele>
        <time>2017-07-11T09:43:38Z</time>
      </trkpt>
      <trkpt lat="49.04037" lon="7.69789">
        <ele>246.23</ele>
        <time>2017-07-11T09:43:49Z</time>
      </trkpt>
      <trkpt lat="49.04006" lon="7.69756">
        <ele>246.23</ele>
        <time>2017-07-11T09:43:56Z</time>
      </trkpt>
      <trkpt lat="49.04026" lon="7.69758">
        <ele>247.2</ele>
        <time>2017-07-11T09:44:21Z</time>
      </trkpt>
      <trkpt lat="49.04039" lon="7.69768">
        <ele>249.12</ele>
        <time>2017-07-11T09:44:32Z</time>
      </trkpt>
      <trkpt lat="49.0405" lon="7.69773">
        <ele>250.08</ele>
        <time>2017-07-11T09:44:42Z</time>
      </trkpt>
      <trkpt lat="49.04065" lon="7.69779">
        <ele>251.04</ele>
        <time>2017-07-11T09:44:52Z</time>
      </trkpt>
      <trkpt lat="49.04078" lon="7.69784">
        <ele>252</ele>
        <time>2017-07-11T09:45:01Z</time>
      </trkpt>
      <trkpt lat="49.04091" lon="7.69791">
        <ele>253.93</ele>
        <time>2017-07-11T09:45:18Z</time>
      </trkpt>
      <trkpt lat="49.04108" lon="7.69806">
        <ele>255.85</ele>
        <time>2017-07-11T09:45:38Z</time>
      </trkpt>
      <trkpt lat="49.04143" lon="7.69821">
        <ele>260.65</ele>
        <time>2017-07-11T09:46:28Z</time>
      </trkpt>
      <trkpt lat="49.04169" lon="7.69828">
        <ele>262.58</ele>
        <time>2017-07-11T09:46:47Z</time>
      </trkpt>
      <trkpt lat="49.0419" lon="7.69842">
        <ele>264.5</ele>
        <time>2017-07-11T09:47:05Z</time>
      </trkpt>
      <trkpt lat="49.04207" lon="7.69855">
        <ele>266.42</ele>
        <time>2017-07-11T09:47:28Z</time>
      </trkpt>
      <trkpt lat="49.04229" lon="7.69873">
        <ele>268.83</ele>
        <time>2017-07-11T09:47:46Z</time>
      </trkpt>
      <trkpt lat="49.04248" lon="7.69885">
        <ele>270.75</ele>
        <time>2017-07-11T09:48:02Z</time>
      </trkpt>
      <trkpt lat="49.04257" lon="7.69889">
        <ele>272.67</ele>
        <time>2017-07-11T09:48:17Z</time>
      </trkpt>
      <trkpt lat="49.04272" lon="7.699">
        <ele>274.11</ele>
        <time>2017-07-11T09:48:37Z</time>
      </trkpt>
      <trkpt lat="49.04286" lon="7.69917">
        <ele>276.52</ele>
        <time>2017-07-11T09:48:57Z</time>
      </trkpt>
      <trkpt lat="49.04303" lon="7.69923">
        <ele>277</ele>
        <time>2017-07-11T09:49:12Z</time>
      </trkpt>
      <trkpt lat="49.04312" lon="7.69931">
        <ele>277.96</ele>
        <time>2017-07-11T09:49:26Z</time>
      </trkpt>
      <trkpt lat="49.04323" lon="7.69947">
        <ele>279.88</ele>
        <time>2017-07-11T09:49:43Z</time>
      </trkpt>
      <trkpt lat="49.04338" lon="7.69961">
        <ele>281.32</ele>
        <time>2017-07-11T09:50:01Z</time>
      </trkpt>
      <trkpt lat="49.04342" lon="7.69969">
        <ele>284.21</ele>
        <time>2017-07-11T09:50:28Z</time>
      </trkpt>
      <trkpt lat="49.04358" lon="7.69988">
        <ele>286.61</ele>
        <time>2017-07-11T09:50:49Z</time>
      </trkpt>
      <trkpt lat="49.04389" lon="7.70009">
        <ele>288.05</ele>
        <time>2017-07-11T09:51:01Z</time>
      </trkpt>
      <trkpt lat="49.04406" lon="7.70012">
        <ele>289.49</ele>
        <time>2017-07-11T09:51:16Z</time>
      </trkpt>
      <trkpt lat="49.04413" lon="7.70011">
        <ele>290.94</ele>
        <time>2017-07-11T09:51:30Z</time>
      </trkpt>
      <trkpt lat="49.04435" lon="7.70013">
        <ele>291.9</ele>
        <time>2017-07-11T09:51:46Z</time>
      </trkpt>
      <trkpt lat="49.04454" lon="7.7002">
        <ele>295.74</ele>
        <time>2017-07-11T09:52:04Z</time>
      </trkpt>
      <trkpt lat="49.04464" lon="7.70026">
        <ele>295.74</ele>
        <time>2017-07-11T09:52:16Z</time>
      </trkpt>
      <trkpt lat="49.04478" lon="7.70031">
        <ele>297.67</ele>
        <time>2017-07-11T09:52:33Z</time>
      </trkpt>
      <trkpt lat="49.04489" lon="7.70035">
        <ele>298.63</ele>
        <time>2017-07-11T09:52:43Z</time>
      </trkpt>
      <trkpt lat="49.04496" lon="7.70041">
        <ele>299.59</ele>
        <time>2017-07-11T09:52:53Z</time>
      </trkpt>
      <trkpt lat="49.0451" lon="7.70044">
        <ele>301.03</ele>
        <time>2017-07-11T09:53:06Z</time>
      </trkpt>
      <trkpt lat="49.04516" lon="7.70051">
        <ele>303.43</ele>
        <time>2017-07-11T09:53:20Z</time>
      </trkpt>
      <trkpt lat="49.04533" lon="7.70051">
        <ele>305.36</ele>
        <time>2017-07-11T09:53:33Z</time>
      </trkpt>
      <trkpt lat="49.04554" lon="7.70062">
        <ele>306.32</ele>
        <time>2017-07-11T09:53:46Z</time>
      </trkpt>
      <trkpt lat="49.04563" lon="7.70074">
        <ele>307.28</ele>
        <time>2017-07-11T09:53:58Z</time>
      </trkpt>
      <trkpt lat="49.04576" lon="7.70091">
        <ele>309.2</ele>
        <time>2017-07-11T09:54:09Z</time>
      </trkpt>
      <trkpt lat="49.04585" lon="7.70107">
        <ele>310.64</ele>
        <time>2017-07-11T09:54:22Z</time>
      </trkpt>
      <trkpt lat="49.04599" lon="7.70126">
        <ele>312.57</ele>
        <time>2017-07-11T09:54:36Z</time>
      </trkpt>
      <trkpt lat="49.04601" lon="7.70133">
        <ele>313.05</ele>
        <time>2017-07-11T09:55:39Z</time>
      </trkpt>
      <trkpt lat="49.04603" lon="7.70153">
        <ele>315.45</ele>
        <time>2017-07-11T09:55:55Z</time>
      </trkpt>
      <trkpt lat="49.04606" lon="7.70182">
        <ele>317.37</ele>
        <time>2017-07-11T09:56:12Z</time>
      </trkpt>
      <trkpt lat="49.04607" lon="7.70212">
        <ele>319.3</ele>
        <time>2017-07-11T09:56:30Z</time>
      </trkpt>
      <trkpt lat="49.04606" lon="7.70231">
        <ele>320.26</ele>
        <time>2017-07-11T09:56:40Z</time>
      </trkpt>
      <trkpt lat="49.04612" lon="7.70255">
        <ele>322.18</ele>
        <time>2017-07-11T09:56:58Z</time>
      </trkpt>
      <trkpt lat="49.04617" lon="7.70278">
        <ele>323.62</ele>
        <time>2017-07-11T09:57:11Z</time>
      </trkpt>
      <trkpt lat="49.04623" lon="7.70303">
        <ele>325.54</ele>
        <time>2017-07-11T09:57:33Z</time>
      </trkpt>
      <trkpt lat="49.04623" lon="7.70326">
        <ele>326.99</ele>
        <time>2017-07-11T09:57:44Z</time>
      </trkpt>
      <trkpt lat="49.04619" lon="7.70343">
        <ele>329.87</ele>
        <time>2017-07-11T09:58:06Z</time>
      </trkpt>
      <trkpt lat="49.04609" lon="7.70345">
        <ele>329.87</ele>
        <time>2017-07-11T09:58:14Z</time>
      </trkpt>
      <trkpt lat="49.04601" lon="7.70347">
        <ele>330.35</ele>
        <time>2017-07-11T09:58:21Z</time>
      </trkpt>
      <trkpt lat="49.04644" lon="7.70378">
        <ele>332.27</ele>
        <time>2017-07-11T09:58:36Z</time>
      </trkpt>
      <trkpt lat="49.04656" lon="7.70379">
        <ele>333.23</ele>
        <time>2017-07-11T09:58:44Z</time>
      </trkpt>
      <trkpt lat="49.04672" lon="7.70364">
        <ele>334.2</ele>
        <time>2017-07-11T09:58:59Z</time>
      </trkpt>
      <trkpt lat="49.0469" lon="7.70343">
        <ele>336.12</ele>
        <time>2017-07-11T09:59:23Z</time>
      </trkpt>
      <trkpt lat="49.04694" lon="7.70322">
        <ele>337.08</ele>
        <time>2017-07-11T09:59:43Z</time>
      </trkpt>
      <trkpt lat="49.04712" lon="7.70311">
        <ele>338.52</ele>
        <time>2017-07-11T10:00:00Z</time>
      </trkpt>
      <trkpt lat="49.04725" lon="7.70308">
        <ele>339</ele>
        <time>2017-07-11T10:00:13Z</time>
      </trkpt>
      <trkpt lat="49.04734" lon="7.70304">
        <ele>339.96</ele>
        <time>2017-07-11T10:00:25Z</time>
      </trkpt>
      <trkpt lat="49.04742" lon="7.70296">
        <ele>340.92</ele>
        <time>2017-07-11T10:00:39Z</time>
      </trkpt>
      <trkpt lat="49.04755" lon="7.70287">
        <ele>341.89</ele>
        <time>2017-07-11T10:00:50Z</time>
      </trkpt>
      <trkpt lat="49.04762" lon="7.70273">
        <ele>343.33</ele>
        <time>2017-07-11T10:01:04Z</time>
      </trkpt>
      <trkpt lat="49.04773" lon="7.70259">
        <ele>344.29</ele>
        <time>2017-07-11T10:01:21Z</time>
      </trkpt>
      <trkpt lat="49.04788" lon="7.7026">
        <ele>347.65</ele>
        <time>2017-07-11T10:01:49Z</time>
      </trkpt>
      <trkpt lat="49.04792" lon="7.70263">
        <ele>348.13</ele>
        <time>2017-07-11T10:02:45Z</time>
      </trkpt>
      <trkpt lat="49.04786" lon="7.70255">
        <ele>348.13</ele>
        <time>2017-07-11T10:06:12Z</time>
      </trkpt>
      <trkpt lat="49.04782" lon="7.70242">
        <ele>347.17</ele>
        <time>2017-07-11T10:06:28Z</time>
      </trkpt>
      <trkpt lat="49.04781" lon="7.7024">
        <ele>344.29</ele>
        <time>2017-07-11T10:06:49Z</time>
      </trkpt>
      <trkpt lat="49.04783" lon="7.70225">
        <ele>342.37</ele>
        <time>2017-07-11T10:07:01Z</time>
      </trkpt>
      <trkpt lat="49.04788" lon="7.70208">
        <ele>341.89</ele>
        <time>2017-07-11T10:07:12Z</time>
      </trkpt>
      <trkpt lat="49.04792" lon="7.70195">
        <ele>341.41</ele>
        <time>2017-07-11T10:07:24Z</time>
      </trkpt>
      <trkpt lat="49.04784" lon="7.70182">
        <ele>345.73</ele>
        <time>2017-07-11T10:08:01Z</time>
      </trkpt>
      <trkpt lat="49.04793" lon="7.7018">
        <ele>346.21</ele>
        <time>2017-07-11T10:08:15Z</time>
      </trkpt>
      <trkpt lat="49.04791" lon="7.70172">
        <ele>346.69</ele>
        <time>2017-07-11T10:08:33Z</time>
      </trkpt>
      <trkpt lat="49.04792" lon="7.70169">
        <ele>353.9</ele>
        <time>2017-07-11T10:09:10Z</time>
      </trkpt>
      <trkpt lat="49.04783" lon="7.70174">
        <ele>357.75</ele>
        <time>2017-07-11T10:09:27Z</time>
      </trkpt>
      <trkpt lat="49.04791" lon="7.70174">
        <ele>359.19</ele>
        <time>2017-07-11T10:10:02Z</time>
      </trkpt>
      <trkpt lat="49.04799" lon="7.70172">
        <ele>359.67</ele>
        <time>2017-07-11T10:11:15Z</time>
      </trkpt>
      <trkpt lat="49.04802" lon="7.70171">
        <ele>359.19</ele>
        <time>2017-07-11T10:13:12Z</time>
      </trkpt>
      <trkpt lat="49.04791" lon="7.70171">
        <ele>359.19</ele>
        <time>2017-07-11T10:13:28Z</time>
      </trkpt>
      <trkpt lat="49.04792" lon="7.70173">
        <ele>358.71</ele>
        <time>2017-07-11T10:13:39Z</time>
      </trkpt>
      <trkpt lat="49.04802" lon="7.70179">
        <ele>358.71</ele>
        <time>2017-07-11T10:14:34Z</time>
      </trkpt>
      <trkpt lat="49.04801" lon="7.70179">
        <ele>359.19</ele>
        <time>2017-07-11T10:16:54Z</time>
      </trkpt>
      <trkpt lat="49.04793" lon="7.70176">
        <ele>358.71</ele>
        <time>2017-07-11T10:17:13Z</time>
      </trkpt>
      <trkpt lat="49.0479" lon="7.7018">
        <ele>360.15</ele>
        <time>2017-07-11T10:17:49Z</time>
      </trkpt>
      <trkpt lat="49.04788" lon="7.70178">
        <ele>357.27</ele>
        <time>2017-07-11T10:18:43Z</time>
      </trkpt>
      <trkpt lat="49.04786" lon="7.70168">
        <ele>350.54</ele>
        <time>2017-07-11T10:19:40Z</time>
      </trkpt>
      <trkpt lat="49.04783" lon="7.70169">
        <ele>349.1</ele>
        <time>2017-07-11T10:20:07Z</time>
      </trkpt>
      <trkpt lat="49.04776" lon="7.70183">
        <ele>345.73</ele>
        <time>2017-07-11T10:21:13Z</time>
      </trkpt>
      <trkpt lat="49.04771" lon="7.70177">
        <ele>341.89</ele>
        <time>2017-07-11T10:22:03Z</time>
      </trkpt>
      <trkpt lat="49.04761" lon="7.70168">
        <ele>339.48</ele>
        <time>2017-07-11T10:23:08Z</time>
      </trkpt>
      <trkpt lat="49.0476" lon="7.7015">
        <ele>334.68</ele>
        <time>2017-07-11T10:24:03Z</time>
      </trkpt>
      <trkpt lat="49.04766" lon="7.70141">
        <ele>332.75</ele>
        <time>2017-07-11T10:24:56Z</time>
      </trkpt>
      <trkpt lat="49.04774" lon="7.70138">
        <ele>334.2</ele>
        <time>2017-07-11T10:31:24Z</time>
      </trkpt>
      <trkpt lat="49.04777" lon="7.70146">
        <ele>336.12</ele>
        <time>2017-07-11T10:40:37Z</time>
      </trkpt>
      <trkpt lat="49.04776" lon="7.70138">
        <ele>336.6</ele>
        <time>2017-07-11T10:41:58Z</time>
      </trkpt>
      <trkpt lat="49.04773" lon="7.7016">
        <ele>335.64</ele>
        <time>2017-07-11T10:42:42Z</time>
      </trkpt>
      <trkpt lat="49.04774" lon="7.70176">
        <ele>334.68</ele>
        <time>2017-07-11T10:43:39Z</time>
      </trkpt>
      <trkpt lat="49.04767" lon="7.70195">
        <ele>333.71</ele>
        <time>2017-07-11T10:44:04Z</time>
      </trkpt>
      <trkpt lat="49.04763" lon="7.70197">
        <ele>333.71</ele>
        <time>2017-07-11T10:45:27Z</time>
      </trkpt>
      <trkpt lat="49.04758" lon="7.70193">
        <ele>331.79</ele>
        <time>2017-07-11T10:46:10Z</time>
      </trkpt>
      <trkpt lat="49.04759" lon="7.70206">
        <ele>338.04</ele>
        <time>2017-07-11T10:46:55Z</time>
      </trkpt>
      <trkpt lat="49.04765" lon="7.70217">
        <ele>343.33</ele>
        <time>2017-07-11T10:47:17Z</time>
      </trkpt>
      <trkpt lat="49.04774" lon="7.70204">
        <ele>347.65</ele>
        <time>2017-07-11T10:47:39Z</time>
      </trkpt>
      <trkpt lat="49.04776" lon="7.70216">
        <ele>349.1</ele>
        <time>2017-07-11T10:47:50Z</time>
      </trkpt>
      <trkpt lat="49.04775" lon="7.70234">
        <ele>351.02</ele>
        <time>2017-07-11T10:48:09Z</time>
      </trkpt>
      <trkpt lat="49.04772" lon="7.70252">
        <ele>351.98</ele>
        <time>2017-07-11T10:48:25Z</time>
      </trkpt>
      <trkpt lat="49.0477" lon="7.70264">
        <ele>351.98</ele>
        <time>2017-07-11T10:48:48Z</time>
      </trkpt>
      <trkpt lat="49.0476" lon="7.70294">
        <ele>354.86</ele>
        <time>2017-07-11T10:50:45Z</time>
      </trkpt>
      <trkpt lat="49.04742" lon="7.70318">
        <ele>356.79</ele>
        <time>2017-07-11T10:51:06Z</time>
      </trkpt>
      <trkpt lat="49.04721" lon="7.70338">
        <ele>359.67</ele>
        <time>2017-07-11T10:51:35Z</time>
      </trkpt>
      <trkpt lat="49.04724" lon="7.70361">
        <ele>362.55</ele>
        <time>2017-07-11T10:51:54Z</time>
      </trkpt>
      <trkpt lat="49.04716" lon="7.70393">
        <ele>365.44</ele>
        <time>2017-07-11T10:52:15Z</time>
      </trkpt>
      <trkpt lat="49.04708" lon="7.70422">
        <ele>368.32</ele>
        <time>2017-07-11T10:52:38Z</time>
      </trkpt>
      <trkpt lat="49.04701" lon="7.7044">
        <ele>370.24</ele>
        <time>2017-07-11T10:52:53Z</time>
      </trkpt>
      <trkpt lat="49.04698" lon="7.70467">
        <ele>373.61</ele>
        <time>2017-07-11T10:53:17Z</time>
      </trkpt>
      <trkpt lat="49.0469" lon="7.70483">
        <ele>374.57</ele>
        <time>2017-07-11T10:53:33Z</time>
      </trkpt>
      <trkpt lat="49.04676" lon="7.70504">
        <ele>376.97</ele>
        <time>2017-07-11T10:53:49Z</time>
      </trkpt>
      <trkpt lat="49.0467" lon="7.70519">
        <ele>378.9</ele>
        <time>2017-07-11T10:54:05Z</time>
      </trkpt>
      <trkpt lat="49.0465" lon="7.70538">
        <ele>380.82</ele>
        <time>2017-07-11T10:54:21Z</time>
      </trkpt>
      <trkpt lat="49.04623" lon="7.7055">
        <ele>383.22</ele>
        <time>2017-07-11T10:54:42Z</time>
      </trkpt>
      <trkpt lat="49.04606" lon="7.70559">
        <ele>385.63</ele>
        <time>2017-07-11T10:55:10Z</time>
      </trkpt>
      <trkpt lat="49.04594" lon="7.70576">
        <ele>386.59</ele>
        <time>2017-07-11T10:55:22Z</time>
      </trkpt>
      <trkpt lat="49.04594" lon="7.70587">
        <ele>387.55</ele>
        <time>2017-07-11T10:55:36Z</time>
      </trkpt>
      <trkpt lat="49.04601" lon="7.70599">
        <ele>387.07</ele>
        <time>2017-07-11T10:55:48Z</time>
      </trkpt>
      <trkpt lat="49.04612" lon="7.70612">
        <ele>386.11</ele>
        <time>2017-07-11T10:56:03Z</time>
      </trkpt>
      <trkpt lat="49.0461" lon="7.70614">
        <ele>385.63</ele>
        <time>2017-07-11T10:56:20Z</time>
      </trkpt>
      <trkpt lat="49.04598" lon="7.70612">
        <ele>386.59</ele>
        <time>2017-07-11T10:56:52Z</time>
      </trkpt>
      <trkpt lat="49.04595" lon="7.70593">
        <ele>387.07</ele>
        <time>2017-07-11T10:57:14Z</time>
      </trkpt>
      <trkpt lat="49.04599" lon="7.70597">
        <ele>388.03</ele>
        <time>2017-07-11T10:58:31Z</time>
      </trkpt>
      <trkpt lat="49.04595" lon="7.70587">
        <ele>388.03</ele>
        <time>2017-07-11T10:59:18Z</time>
      </trkpt>
      <trkpt lat="49.04585" lon="7.70576">
        <ele>388.51</ele>
        <time>2017-07-11T10:59:45Z</time>
      </trkpt>
      <trkpt lat="49.04571" lon="7.70577">
        <ele>390.43</ele>
        <time>2017-07-11T11:00:01Z</time>
      </trkpt>
      <trkpt lat="49.04565" lon="7.70595">
        <ele>394.76</ele>
        <time>2017-07-11T11:00:19Z</time>
      </trkpt>
      <trkpt lat="49.04561" lon="7.70611">
        <ele>394.76</ele>
        <time>2017-07-11T11:00:33Z</time>
      </trkpt>
      <trkpt lat="49.04552" lon="7.70618">
        <ele>395.24</ele>
        <time>2017-07-11T11:00:43Z</time>
      </trkpt>
      <trkpt lat="49.04542" lon="7.70628">
        <ele>396.2</ele>
        <time>2017-07-11T11:00:53Z</time>
      </trkpt>
      <trkpt lat="49.04535" lon="7.70637">
        <ele>396.68</ele>
        <time>2017-07-11T11:01:03Z</time>
      </trkpt>
      <trkpt lat="49.04527" lon="7.70649">
        <ele>398.12</ele>
        <time>2017-07-11T11:01:14Z</time>
      </trkpt>
      <trkpt lat="49.04523" lon="7.70663">
        <ele>400.53</ele>
        <time>2017-07-11T11:01:29Z</time>
      </trkpt>
      <trkpt lat="49.04515" lon="7.70675">
        <ele>401.01</ele>
        <time>2017-07-11T11:01:39Z</time>
      </trkpt>
      <trkpt lat="49.04505" lon="7.70684">
        <ele>400.05</ele>
        <time>2017-07-11T11:01:49Z</time>
      </trkpt>
      <trkpt lat="49.04495" lon="7.70702">
        <ele>401.49</ele>
        <time>2017-07-11T11:02:03Z</time>
      </trkpt>
      <trkpt lat="49.04483" lon="7.70705">
        <ele>401.97</ele>
        <time>2017-07-11T11:02:13Z</time>
      </trkpt>
      <trkpt lat="49.04473" lon="7.70709">
        <ele>401.97</ele>
        <time>2017-07-11T11:02:24Z</time>
      </trkpt>
      <trkpt lat="49.04464" lon="7.70728">
        <ele>401.97</ele>
        <time>2017-07-11T11:02:39Z</time>
      </trkpt>
      <trkpt lat="49.04454" lon="7.70758">
        <ele>402.45</ele>
        <time>2017-07-11T11:02:50Z</time>
      </trkpt>
      <trkpt lat="49.04444" lon="7.70771">
        <ele>402.45</ele>
        <time>2017-07-11T11:03:02Z</time>
      </trkpt>
      <trkpt lat="49.04429" lon="7.70774">
        <ele>403.41</ele>
        <time>2017-07-11T11:03:16Z</time>
      </trkpt>
      <trkpt lat="49.0442" lon="7.70786">
        <ele>401.97</ele>
        <time>2017-07-11T11:03:31Z</time>
      </trkpt>
      <trkpt lat="49.04414" lon="7.70801">
        <ele>401.49</ele>
        <time>2017-07-11T11:03:43Z</time>
      </trkpt>
      <trkpt lat="49.04408" lon="7.70816">
        <ele>401.49</ele>
        <time>2017-07-11T11:03:55Z</time>
      </trkpt>
      <trkpt lat="49.044" lon="7.70827">
        <ele>401.97</ele>
        <time>2017-07-11T11:04:06Z</time>
      </trkpt>
      <trkpt lat="49.04393" lon="7.70844">
        <ele>401.97</ele>
        <time>2017-07-11T11:04:19Z</time>
      </trkpt>
      <trkpt lat="49.04389" lon="7.70854">
        <ele>401.97</ele>
        <time>2017-07-11T11:05:21Z</time>
      </trkpt>
      <trkpt lat="49.04392" lon="7.70871">
        <ele>401.97</ele>
        <time>2017-07-11T11:05:31Z</time>
      </trkpt>
      <trkpt lat="49.0439" lon="7.70892">
        <ele>401.97</ele>
        <time>2017-07-11T11:05:43Z</time>
      </trkpt>
      <trkpt lat="49.04383" lon="7.70916">
        <ele>402.45</ele>
        <time>2017-07-11T11:05:56Z</time>
      </trkpt>
      <trkpt lat="49.04383" lon="7.70933">
        <ele>402.45</ele>
        <time>2017-07-11T11:06:05Z</time>
      </trkpt>
      <trkpt lat="49.04389" lon="7.70952">
        <ele>404.37</ele>
        <time>2017-07-11T11:06:22Z</time>
      </trkpt>
      <trkpt lat="49.04391" lon="7.7097">
        <ele>405.81</ele>
        <time>2017-07-11T11:06:51Z</time>
      </trkpt>
      <trkpt lat="49.04395" lon="7.70999">
        <ele>406.77</ele>
        <time>2017-07-11T11:07:08Z</time>
      </trkpt>
      <trkpt lat="49.04391" lon="7.71024">
        <ele>408.7</ele>
        <time>2017-07-11T11:07:26Z</time>
      </trkpt>
      <trkpt lat="49.04388" lon="7.71046">
        <ele>411.58</ele>
        <time>2017-07-11T11:07:43Z</time>
      </trkpt>
      <trkpt lat="49.04389" lon="7.7107">
        <ele>413.02</ele>
        <time>2017-07-11T11:07:59Z</time>
      </trkpt>
      <trkpt lat="49.04394" lon="7.71096">
        <ele>414.95</ele>
        <time>2017-07-11T11:08:18Z</time>
      </trkpt>
      <trkpt lat="49.04401" lon="7.71121">
        <ele>416.87</ele>
        <time>2017-07-11T11:08:36Z</time>
      </trkpt>
      <trkpt lat="49.04398" lon="7.71148">
        <ele>419.27</ele>
        <time>2017-07-11T11:08:56Z</time>
      </trkpt>
      <trkpt lat="49.04405" lon="7.71163">
        <ele>421.68</ele>
        <time>2017-07-11T11:09:17Z</time>
      </trkpt>
      <trkpt lat="49.044" lon="7.71193">
        <ele>422.64</ele>
        <time>2017-07-11T11:09:27Z</time>
      </trkpt>
      <trkpt lat="49.04391" lon="7.71217">
        <ele>424.56</ele>
        <time>2017-07-11T11:09:43Z</time>
      </trkpt>
      <trkpt lat="49.04383" lon="7.71242">
        <ele>426.96</ele>
        <time>2017-07-11T11:10:04Z</time>
      </trkpt>
      <trkpt lat="49.04373" lon="7.71268">
        <ele>428.89</ele>
        <time>2017-07-11T11:10:24Z</time>
      </trkpt>
      <trkpt lat="49.04363" lon="7.71292">
        <ele>431.77</ele>
        <time>2017-07-11T11:10:50Z</time>
      </trkpt>
      <trkpt lat="49.04355" lon="7.71318">
        <ele>433.69</ele>
        <time>2017-07-11T11:11:33Z</time>
      </trkpt>
      <trkpt lat="49.04348" lon="7.71326">
        <ele>435.61</ele>
        <time>2017-07-11T11:11:56Z</time>
      </trkpt>
      <trkpt lat="49.04352" lon="7.71349">
        <ele>438.02</ele>
        <time>2017-07-11T11:12:23Z</time>
      </trkpt>
      <trkpt lat="49.04363" lon="7.71378">
        <ele>440.9</ele>
        <time>2017-07-11T11:12:38Z</time>
      </trkpt>
      <trkpt lat="49.04345" lon="7.71391">
        <ele>443.31</ele>
        <time>2017-07-11T11:13:13Z</time>
      </trkpt>
      <trkpt lat="49.04344" lon="7.71407">
        <ele>442.82</ele>
        <time>2017-07-11T11:13:39Z</time>
      </trkpt>
      <trkpt lat="49.04336" lon="7.71426">
        <ele>441.86</ele>
        <time>2017-07-11T11:14:10Z</time>
      </trkpt>
      <trkpt lat="49.04341" lon="7.71446">
        <ele>448.11</ele>
        <time>2017-07-11T11:58:26Z</time>
      </trkpt>
      <trkpt lat="49.04347" lon="7.7146">
        <ele>448.11</ele>
        <time>2017-07-11T11:58:50Z</time>
      </trkpt>
      <trkpt lat="49.04355" lon="7.7148">
        <ele>445.23</ele>
        <time>2017-07-11T11:59:08Z</time>
      </trkpt>
      <trkpt lat="49.04357" lon="7.71499">
        <ele>442.34</ele>
        <time>2017-07-11T11:59:36Z</time>
      </trkpt>
      <trkpt lat="49.0437" lon="7.71521">
        <ele>439.94</ele>
        <time>2017-07-11T11:59:54Z</time>
      </trkpt>
      <trkpt lat="49.04384" lon="7.71546">
        <ele>438.98</ele>
        <time>2017-07-11T12:00:05Z</time>
      </trkpt>
      <trkpt lat="49.04394" lon="7.71564">
        <ele>437.06</ele>
        <time>2017-07-11T12:00:20Z</time>
      </trkpt>
      <trkpt lat="49.04408" lon="7.71584">
        <ele>435.61</ele>
        <time>2017-07-11T12:00:34Z</time>
      </trkpt>
      <trkpt lat="49.04414" lon="7.71606">
        <ele>434.17</ele>
        <time>2017-07-11T12:00:46Z</time>
      </trkpt>
      <trkpt lat="49.04421" lon="7.71622">
        <ele>432.73</ele>
        <time>2017-07-11T12:00:56Z</time>
      </trkpt>
      <trkpt lat="49.04425" lon="7.71641">
        <ele>431.29</ele>
        <time>2017-07-11T12:01:07Z</time>
      </trkpt>
      <trkpt lat="49.04431" lon="7.71662">
        <ele>429.37</ele>
        <time>2017-07-11T12:01:20Z</time>
      </trkpt>
      <trkpt lat="49.04433" lon="7.71684">
        <ele>427.92</ele>
        <time>2017-07-11T12:01:40Z</time>
      </trkpt>
      <trkpt lat="49.04437" lon="7.71712">
        <ele>426</ele>
        <time>2017-07-11T12:01:57Z</time>
      </trkpt>
      <trkpt lat="49.04437" lon="7.71729">
        <ele>424.08</ele>
        <time>2017-07-11T12:02:13Z</time>
      </trkpt>
      <trkpt lat="49.04444" lon="7.71748">
        <ele>423.12</ele>
        <time>2017-07-11T12:02:38Z</time>
      </trkpt>
      <trkpt lat="49.04446" lon="7.71775">
        <ele>423.12</ele>
        <time>2017-07-11T12:02:51Z</time>
      </trkpt>
      <trkpt lat="49.04449" lon="7.71803">
        <ele>424.08</ele>
        <time>2017-07-11T12:03:05Z</time>
      </trkpt>
      <trkpt lat="49.04449" lon="7.71818">
        <ele>424.08</ele>
        <time>2017-07-11T12:03:15Z</time>
      </trkpt>
      <trkpt lat="49.04448" lon="7.71833">
        <ele>424.08</ele>
        <time>2017-07-11T12:03:23Z</time>
      </trkpt>
      <trkpt lat="49.0445" lon="7.71851">
        <ele>424.56</ele>
        <time>2017-07-11T12:03:32Z</time>
      </trkpt>
      <trkpt lat="49.04451" lon="7.71876">
        <ele>425.04</ele>
        <time>2017-07-11T12:03:47Z</time>
      </trkpt>
      <trkpt lat="49.04451" lon="7.71892">
        <ele>425.52</ele>
        <time>2017-07-11T12:03:59Z</time>
      </trkpt>
      <trkpt lat="49.04449" lon="7.71909">
        <ele>425.52</ele>
        <time>2017-07-11T12:04:09Z</time>
      </trkpt>
      <trkpt lat="49.04447" lon="7.71924">
        <ele>425.52</ele>
        <time>2017-07-11T12:04:18Z</time>
      </trkpt>
      <trkpt lat="49.04444" lon="7.71941">
        <ele>426</ele>
        <time>2017-07-11T12:04:28Z</time>
      </trkpt>
      <trkpt lat="49.04439" lon="7.71956">
        <ele>426.48</ele>
        <time>2017-07-11T12:04:39Z</time>
      </trkpt>
      <trkpt lat="49.04434" lon="7.71972">
        <ele>426.96</ele>
        <time>2017-07-11T12:04:49Z</time>
      </trkpt>
      <trkpt lat="49.04428" lon="7.71986">
        <ele>426.96</ele>
        <time>2017-07-11T12:04:59Z</time>
      </trkpt>
      <trkpt lat="49.04422" lon="7.71999">
        <ele>427.44</ele>
        <time>2017-07-11T12:05:09Z</time>
      </trkpt>
      <trkpt lat="49.04414" lon="7.72012">
        <ele>427.44</ele>
        <time>2017-07-11T12:05:18Z</time>
      </trkpt>
      <trkpt lat="49.04407" lon="7.72025">
        <ele>427.44</ele>
        <time>2017-07-11T12:05:27Z</time>
      </trkpt>
      <trkpt lat="49.044" lon="7.72037">
        <ele>427.92</ele>
        <time>2017-07-11T12:05:36Z</time>
      </trkpt>
      <trkpt lat="49.04394" lon="7.72051">
        <ele>428.4</ele>
        <time>2017-07-11T12:05:46Z</time>
      </trkpt>
      <trkpt lat="49.04387" lon="7.72064">
        <ele>428.4</ele>
        <time>2017-07-11T12:05:56Z</time>
      </trkpt>
      <trkpt lat="49.0438" lon="7.72079">
        <ele>428.89</ele>
        <time>2017-07-11T12:06:05Z</time>
      </trkpt>
      <trkpt lat="49.04373" lon="7.72093">
        <ele>428.89</ele>
        <time>2017-07-11T12:06:14Z</time>
      </trkpt>
      <trkpt lat="49.04364" lon="7.72111">
        <ele>429.37</ele>
        <time>2017-07-11T12:06:25Z</time>
      </trkpt>
      <trkpt lat="49.04355" lon="7.72127">
        <ele>429.85</ele>
        <time>2017-07-11T12:06:35Z</time>
      </trkpt>
      <trkpt lat="49.04346" lon="7.72139">
        <ele>429.85</ele>
        <time>2017-07-11T12:06:45Z</time>
      </trkpt>
      <trkpt lat="49.04337" lon="7.7215">
        <ele>430.33</ele>
        <time>2017-07-11T12:06:56Z</time>
      </trkpt>
      <trkpt lat="49.04329" lon="7.72162">
        <ele>430.81</ele>
        <time>2017-07-11T12:07:06Z</time>
      </trkpt>
      <trkpt lat="49.04321" lon="7.72181">
        <ele>431.29</ele>
        <time>2017-07-11T12:07:18Z</time>
      </trkpt>
      <trkpt lat="49.04307" lon="7.72195">
        <ele>432.25</ele>
        <time>2017-07-11T12:07:35Z</time>
      </trkpt>
      <trkpt lat="49.04297" lon="7.72199">
        <ele>431.77</ele>
        <time>2017-07-11T12:07:47Z</time>
      </trkpt>
      <trkpt lat="49.04286" lon="7.72189">
        <ele>428.89</ele>
        <time>2017-07-11T12:08:03Z</time>
      </trkpt>
      <trkpt lat="49.04263" lon="7.72192">
        <ele>423.6</ele>
        <time>2017-07-11T12:08:49Z</time>
      </trkpt>
      <trkpt lat="49.04211" lon="7.72214">
        <ele>419.75</ele>
        <time>2017-07-11T12:09:14Z</time>
      </trkpt>
      <trkpt lat="49.04186" lon="7.72223">
        <ele>417.35</ele>
        <time>2017-07-11T12:09:39Z</time>
      </trkpt>
      <trkpt lat="49.04167" lon="7.72229">
        <ele>415.43</ele>
        <time>2017-07-11T12:10:03Z</time>
      </trkpt>
      <trkpt lat="49.04137" lon="7.72226">
        <ele>411.58</ele>
        <time>2017-07-11T12:10:26Z</time>
      </trkpt>
      <trkpt lat="49.04124" lon="7.7222">
        <ele>410.14</ele>
        <time>2017-07-11T12:10:34Z</time>
      </trkpt>
      <trkpt lat="49.04109" lon="7.72211">
        <ele>408.22</ele>
        <time>2017-07-11T12:10:44Z</time>
      </trkpt>
      <trkpt lat="49.04104" lon="7.72209">
        <ele>407.26</ele>
        <time>2017-07-11T12:11:03Z</time>
      </trkpt>
      <trkpt lat="49.04066" lon="7.72245">
        <ele>407.26</ele>
        <time>2017-07-11T12:11:19Z</time>
      </trkpt>
      <trkpt lat="49.04062" lon="7.72258">
        <ele>407.26</ele>
        <time>2017-07-11T12:11:31Z</time>
      </trkpt>
      <trkpt lat="49.04061" lon="7.72274">
        <ele>406.29</ele>
        <time>2017-07-11T12:11:40Z</time>
      </trkpt>
      <trkpt lat="49.04069" lon="7.72291">
        <ele>404.85</ele>
        <time>2017-07-11T12:11:53Z</time>
      </trkpt>
      <trkpt lat="49.04076" lon="7.72322">
        <ele>402.93</ele>
        <time>2017-07-11T12:12:08Z</time>
      </trkpt>
      <trkpt lat="49.04082" lon="7.72341">
        <ele>401.97</ele>
        <time>2017-07-11T12:12:23Z</time>
      </trkpt>
      <trkpt lat="49.04089" lon="7.72362">
        <ele>401.01</ele>
        <time>2017-07-11T12:12:34Z</time>
      </trkpt>
      <trkpt lat="49.04094" lon="7.72378">
        <ele>400.05</ele>
        <time>2017-07-11T12:12:45Z</time>
      </trkpt>
      <trkpt lat="49.04101" lon="7.72417">
        <ele>398.6</ele>
        <time>2017-07-11T12:13:01Z</time>
      </trkpt>
      <trkpt lat="49.04104" lon="7.7244">
        <ele>397.64</ele>
        <time>2017-07-11T12:13:13Z</time>
      </trkpt>
      <trkpt lat="49.04092" lon="7.72464">
        <ele>396.68</ele>
        <time>2017-07-11T12:13:28Z</time>
      </trkpt>
      <trkpt lat="49.04094" lon="7.72481">
        <ele>395.72</ele>
        <time>2017-07-11T12:13:41Z</time>
      </trkpt>
      <trkpt lat="49.04107" lon="7.72499">
        <ele>394.28</ele>
        <time>2017-07-11T12:13:56Z</time>
      </trkpt>
      <trkpt lat="49.04117" lon="7.72522">
        <ele>393.32</ele>
        <time>2017-07-11T12:14:07Z</time>
      </trkpt>
      <trkpt lat="49.04118" lon="7.72554">
        <ele>391.87</ele>
        <time>2017-07-11T12:14:22Z</time>
      </trkpt>
      <trkpt lat="49.04115" lon="7.72571">
        <ele>391.39</ele>
        <time>2017-07-11T12:14:33Z</time>
      </trkpt>
      <trkpt lat="49.04114" lon="7.72594">
        <ele>389.95</ele>
        <time>2017-07-11T12:14:47Z</time>
      </trkpt>
      <trkpt lat="49.04113" lon="7.72628">
        <ele>388.51</ele>
        <time>2017-07-11T12:15:02Z</time>
      </trkpt>
      <trkpt lat="49.04113" lon="7.72651">
        <ele>387.55</ele>
        <time>2017-07-11T12:15:13Z</time>
      </trkpt>
      <trkpt lat="49.04112" lon="7.72675">
        <ele>386.59</ele>
        <time>2017-07-11T12:15:25Z</time>
      </trkpt>
      <trkpt lat="49.04112" lon="7.727">
        <ele>385.15</ele>
        <time>2017-07-11T12:15:39Z</time>
      </trkpt>
      <trkpt lat="49.04114" lon="7.72723">
        <ele>383.7</ele>
        <time>2017-07-11T12:15:51Z</time>
      </trkpt>
      <trkpt lat="49.04115" lon="7.72751">
        <ele>381.78</ele>
        <time>2017-07-11T12:16:06Z</time>
      </trkpt>
      <trkpt lat="49.0412" lon="7.72772">
        <ele>380.82</ele>
        <time>2017-07-11T12:16:19Z</time>
      </trkpt>
      <trkpt lat="49.04125" lon="7.72799">
        <ele>379.86</ele>
        <time>2017-07-11T12:16:34Z</time>
      </trkpt>
      <trkpt lat="49.04134" lon="7.72821">
        <ele>378.42</ele>
        <time>2017-07-11T12:16:47Z</time>
      </trkpt>
      <trkpt lat="49.04138" lon="7.72841">
        <ele>376.49</ele>
        <time>2017-07-11T12:17:05Z</time>
      </trkpt>
      <trkpt lat="49.04145" lon="7.72862">
        <ele>375.53</ele>
        <time>2017-07-11T12:17:19Z</time>
      </trkpt>
      <trkpt lat="49.0416" lon="7.72896">
        <ele>373.61</ele>
        <time>2017-07-11T12:17:37Z</time>
      </trkpt>
      <trkpt lat="49.04177" lon="7.72925">
        <ele>372.17</ele>
        <time>2017-07-11T12:17:54Z</time>
      </trkpt>
      <trkpt lat="49.04188" lon="7.72939">
        <ele>371.69</ele>
        <time>2017-07-11T12:18:07Z</time>
      </trkpt>
      <trkpt lat="49.04203" lon="7.72959">
        <ele>370.24</ele>
        <time>2017-07-11T12:18:20Z</time>
      </trkpt>
      <trkpt lat="49.04214" lon="7.72976">
        <ele>369.28</ele>
        <time>2017-07-11T12:18:37Z</time>
      </trkpt>
      <trkpt lat="49.04224" lon="7.72991">
        <ele>367.84</ele>
        <time>2017-07-11T12:18:53Z</time>
      </trkpt>
      <trkpt lat="49.04229" lon="7.73004">
        <ele>365.92</ele>
        <time>2017-07-11T12:19:17Z</time>
      </trkpt>
      <trkpt lat="49.04233" lon="7.73008">
        <ele>364.96</ele>
        <time>2017-07-11T12:20:10Z</time>
      </trkpt>
      <trkpt lat="49.04248" lon="7.73024">
        <ele>360.63</ele>
        <time>2017-07-11T12:25:55Z</time>
      </trkpt>
      <trkpt lat="49.04251" lon="7.73027">
        <ele>360.15</ele>
        <time>2017-07-11T12:27:19Z</time>
      </trkpt>
      <trkpt lat="49.04243" lon="7.73034">
        <ele>359.19</ele>
        <time>2017-07-11T12:28:02Z</time>
      </trkpt>
      <trkpt lat="49.04234" lon="7.73042">
        <ele>356.31</ele>
        <time>2017-07-11T12:28:14Z</time>
      </trkpt>
      <trkpt lat="49.04214" lon="7.73051">
        <ele>356.79</ele>
        <time>2017-07-11T12:28:35Z</time>
      </trkpt>
      <trkpt lat="49.04199" lon="7.73062">
        <ele>356.31</ele>
        <time>2017-07-11T12:28:49Z</time>
      </trkpt>
      <trkpt lat="49.04178" lon="7.73073">
        <ele>355.34</ele>
        <time>2017-07-11T12:29:13Z</time>
      </trkpt>
      <trkpt lat="49.0416" lon="7.73083">
        <ele>354.86</ele>
        <time>2017-07-11T12:29:27Z</time>
      </trkpt>
      <trkpt lat="49.04144" lon="7.73089">
        <ele>354.38</ele>
        <time>2017-07-11T12:29:40Z</time>
      </trkpt>
      <trkpt lat="49.04124" lon="7.73096">
        <ele>353.42</ele>
        <time>2017-07-11T12:29:57Z</time>
      </trkpt>
      <trkpt lat="49.04109" lon="7.73101">
        <ele>352.94</ele>
        <time>2017-07-11T12:30:09Z</time>
      </trkpt>
      <trkpt lat="49.04099" lon="7.73105">
        <ele>353.42</ele>
        <time>2017-07-11T12:30:20Z</time>
      </trkpt>
      <trkpt lat="49.04088" lon="7.73105">
        <ele>352.46</ele>
        <time>2017-07-11T12:30:36Z</time>
      </trkpt>
      <trkpt lat="49.04076" lon="7.73111">
        <ele>352.46</ele>
        <time>2017-07-11T12:31:18Z</time>
      </trkpt>
      <trkpt lat="49.04073" lon="7.73124">
        <ele>352.94</ele>
        <time>2017-07-11T12:31:46Z</time>
      </trkpt>
      <trkpt lat="49.04059" lon="7.73122">
        <ele>354.38</ele>
        <time>2017-07-11T12:31:59Z</time>
      </trkpt>
      <trkpt lat="49.04047" lon="7.73129">
        <ele>354.86</ele>
        <time>2017-07-11T12:32:19Z</time>
      </trkpt>
      <trkpt lat="49.04028" lon="7.73137">
        <ele>355.34</ele>
        <time>2017-07-11T12:32:39Z</time>
      </trkpt>
      <trkpt lat="49.04006" lon="7.73147">
        <ele>355.83</ele>
        <time>2017-07-11T12:32:58Z</time>
      </trkpt>
      <trkpt lat="49.03985" lon="7.73164">
        <ele>356.31</ele>
        <time>2017-07-11T12:33:17Z</time>
      </trkpt>
      <trkpt lat="49.03967" lon="7.73175">
        <ele>356.79</ele>
        <time>2017-07-11T12:33:37Z</time>
      </trkpt>
      <trkpt lat="49.03947" lon="7.73187">
        <ele>356.79</ele>
        <time>2017-07-11T12:33:58Z</time>
      </trkpt>
      <trkpt lat="49.03929" lon="7.73192">
        <ele>357.75</ele>
        <time>2017-07-11T12:34:19Z</time>
      </trkpt>
      <trkpt lat="49.03917" lon="7.73204">
        <ele>359.19</ele>
        <time>2017-07-11T12:34:57Z</time>
      </trkpt>
      <trkpt lat="49.03899" lon="7.732">
        <ele>359.19</ele>
        <time>2017-07-11T12:35:12Z</time>
      </trkpt>
      <trkpt lat="49.0388" lon="7.73199">
        <ele>358.23</ele>
        <time>2017-07-11T12:35:26Z</time>
      </trkpt>
      <trkpt lat="49.03863" lon="7.73191">
        <ele>359.19</ele>
        <time>2017-07-11T12:35:39Z</time>
      </trkpt>
      <trkpt lat="49.03845" lon="7.73199">
        <ele>359.67</ele>
        <time>2017-07-11T12:35:58Z</time>
      </trkpt>
      <trkpt lat="49.03826" lon="7.73206">
        <ele>360.63</ele>
        <time>2017-07-11T12:36:17Z</time>
      </trkpt>
      <trkpt lat="49.03807" lon="7.73212">
        <ele>360.63</ele>
        <time>2017-07-11T12:36:35Z</time>
      </trkpt>
      <trkpt lat="49.03789" lon="7.73222">
        <ele>361.11</ele>
        <time>2017-07-11T12:36:54Z</time>
      </trkpt>
      <trkpt lat="49.03775" lon="7.7322">
        <ele>361.11</ele>
        <time>2017-07-11T12:37:09Z</time>
      </trkpt>
      <trkpt lat="49.03753" lon="7.73217">
        <ele>363.52</ele>
        <time>2017-07-11T12:37:38Z</time>
      </trkpt>
      <trkpt lat="49.03717" lon="7.73201">
        <ele>363.52</ele>
        <time>2017-07-11T12:37:56Z</time>
      </trkpt>
      <trkpt lat="49.03679" lon="7.73191">
        <ele>365.92</ele>
        <time>2017-07-11T12:38:27Z</time>
      </trkpt>
      <trkpt lat="49.03653" lon="7.73205">
        <ele>367.36</ele>
        <time>2017-07-11T12:38:58Z</time>
      </trkpt>
      <trkpt lat="49.03636" lon="7.73219">
        <ele>367.84</ele>
        <time>2017-07-11T12:39:19Z</time>
      </trkpt>
      <trkpt lat="49.03623" lon="7.73239">
        <ele>367.84</ele>
        <time>2017-07-11T12:39:33Z</time>
      </trkpt>
      <trkpt lat="49.03612" lon="7.73252">
        <ele>367.84</ele>
        <time>2017-07-11T12:39:47Z</time>
      </trkpt>
      <trkpt lat="49.03595" lon="7.73257">
        <ele>368.8</ele>
        <time>2017-07-11T12:40:04Z</time>
      </trkpt>
      <trkpt lat="49.0358" lon="7.73253">
        <ele>369.76</ele>
        <time>2017-07-11T12:40:18Z</time>
      </trkpt>
      <trkpt lat="49.03571" lon="7.73248">
        <ele>369.28</ele>
        <time>2017-07-11T12:40:30Z</time>
      </trkpt>
      <trkpt lat="49.03563" lon="7.73242">
        <ele>370.24</ele>
        <time>2017-07-11T12:40:39Z</time>
      </trkpt>
      <trkpt lat="49.03548" lon="7.73252">
        <ele>371.21</ele>
        <time>2017-07-11T12:40:52Z</time>
      </trkpt>
      <trkpt lat="49.03535" lon="7.73275">
        <ele>371.69</ele>
        <time>2017-07-11T12:41:04Z</time>
      </trkpt>
      <trkpt lat="49.03522" lon="7.73293">
        <ele>371.69</ele>
        <time>2017-07-11T12:41:18Z</time>
      </trkpt>
      <trkpt lat="49.0351" lon="7.733">
        <ele>372.17</ele>
        <time>2017-07-11T12:41:33Z</time>
      </trkpt>
      <trkpt lat="49.03495" lon="7.73298">
        <ele>372.65</ele>
        <time>2017-07-11T12:41:48Z</time>
      </trkpt>
      <trkpt lat="49.0348" lon="7.73296">
        <ele>373.13</ele>
        <time>2017-07-11T12:42:11Z</time>
      </trkpt>
      <trkpt lat="49.03468" lon="7.73286">
        <ele>374.09</ele>
        <time>2017-07-11T12:42:26Z</time>
      </trkpt>
      <trkpt lat="49.03434" lon="7.73278">
        <ele>375.53</ele>
        <time>2017-07-11T12:42:41Z</time>
      </trkpt>
      <trkpt lat="49.03416" lon="7.73281">
        <ele>377.45</ele>
        <time>2017-07-11T12:43:03Z</time>
      </trkpt>
      <trkpt lat="49.03376" lon="7.73285">
        <ele>378.9</ele>
        <time>2017-07-11T12:43:51Z</time>
      </trkpt>
      <trkpt lat="49.03362" lon="7.73304">
        <ele>378.42</ele>
        <time>2017-07-11T12:44:17Z</time>
      </trkpt>
      <trkpt lat="49.03348" lon="7.7333">
        <ele>378.9</ele>
        <time>2017-07-11T12:44:43Z</time>
      </trkpt>
      <trkpt lat="49.03338" lon="7.73355">
        <ele>379.38</ele>
        <time>2017-07-11T12:44:58Z</time>
      </trkpt>
      <trkpt lat="49.03337" lon="7.73377">
        <ele>379.38</ele>
        <time>2017-07-11T12:45:13Z</time>
      </trkpt>
      <trkpt lat="49.03329" lon="7.73411">
        <ele>379.86</ele>
        <time>2017-07-11T12:45:32Z</time>
      </trkpt>
      <trkpt lat="49.03328" lon="7.73441">
        <ele>379.86</ele>
        <time>2017-07-11T12:45:46Z</time>
      </trkpt>
      <trkpt lat="49.03327" lon="7.73456">
        <ele>379.86</ele>
        <time>2017-07-11T12:45:55Z</time>
      </trkpt>
      <trkpt lat="49.03327" lon="7.73472">
        <ele>380.34</ele>
        <time>2017-07-11T12:46:08Z</time>
      </trkpt>
      <trkpt lat="49.03335" lon="7.73492">
        <ele>380.34</ele>
        <time>2017-07-11T12:46:20Z</time>
      </trkpt>
      <trkpt lat="49.03341" lon="7.73512">
        <ele>379.86</ele>
        <time>2017-07-11T12:46:32Z</time>
      </trkpt>
      <trkpt lat="49.03343" lon="7.73527">
        <ele>380.82</ele>
        <time>2017-07-11T12:46:43Z</time>
      </trkpt>
      <trkpt lat="49.03347" lon="7.73543">
        <ele>381.3</ele>
        <time>2017-07-11T12:46:55Z</time>
      </trkpt>
      <trkpt lat="49.03355" lon="7.73558">
        <ele>381.78</ele>
        <time>2017-07-11T12:47:06Z</time>
      </trkpt>
      <trkpt lat="49.03364" lon="7.73568">
        <ele>381.78</ele>
        <time>2017-07-11T12:47:16Z</time>
      </trkpt>
      <trkpt lat="49.03373" lon="7.73573">
        <ele>382.26</ele>
        <time>2017-07-11T12:47:27Z</time>
      </trkpt>
      <trkpt lat="49.03386" lon="7.73579">
        <ele>382.74</ele>
        <time>2017-07-11T12:47:38Z</time>
      </trkpt>
      <trkpt lat="49.034" lon="7.73577">
        <ele>383.7</ele>
        <time>2017-07-11T12:47:51Z</time>
      </trkpt>
      <trkpt lat="49.03411" lon="7.73577">
        <ele>383.7</ele>
        <time>2017-07-11T12:48:03Z</time>
      </trkpt>
      <trkpt lat="49.03428" lon="7.73575">
        <ele>384.66</ele>
        <time>2017-07-11T12:48:17Z</time>
      </trkpt>
      <trkpt lat="49.03441" lon="7.7357">
        <ele>385.15</ele>
        <time>2017-07-11T12:48:32Z</time>
      </trkpt>
      <trkpt lat="49.03452" lon="7.73566">
        <ele>385.63</ele>
        <time>2017-07-11T12:48:41Z</time>
      </trkpt>
      <trkpt lat="49.03461" lon="7.73567">
        <ele>385.63</ele>
        <time>2017-07-11T12:48:49Z</time>
      </trkpt>
      <trkpt lat="49.0347" lon="7.73564">
        <ele>387.07</ele>
        <time>2017-07-11T12:49:02Z</time>
      </trkpt>
      <trkpt lat="49.0348" lon="7.73559">
        <ele>387.07</ele>
        <time>2017-07-11T12:49:12Z</time>
      </trkpt>
      <trkpt lat="49.035" lon="7.7356">
        <ele>388.51</ele>
        <time>2017-07-11T12:49:32Z</time>
      </trkpt>
      <trkpt lat="49.03526" lon="7.73567">
        <ele>388.99</ele>
        <time>2017-07-11T12:49:47Z</time>
      </trkpt>
      <trkpt lat="49.03547" lon="7.73568">
        <ele>389.95</ele>
        <time>2017-07-11T12:50:09Z</time>
      </trkpt>
      <trkpt lat="49.03574" lon="7.73569">
        <ele>391.39</ele>
        <time>2017-07-11T12:50:25Z</time>
      </trkpt>
      <trkpt lat="49.03589" lon="7.73565">
        <ele>393.32</ele>
        <time>2017-07-11T12:50:50Z</time>
      </trkpt>
      <trkpt lat="49.03604" lon="7.73566">
        <ele>394.28</ele>
        <time>2017-07-11T12:51:03Z</time>
      </trkpt>
      <trkpt lat="49.03627" lon="7.73567">
        <ele>395.72</ele>
        <time>2017-07-11T12:51:18Z</time>
      </trkpt>
      <trkpt lat="49.03652" lon="7.73578">
        <ele>396.68</ele>
        <time>2017-07-11T12:51:36Z</time>
      </trkpt>
      <trkpt lat="49.03669" lon="7.73581">
        <ele>397.16</ele>
        <time>2017-07-11T12:51:51Z</time>
      </trkpt>
      <trkpt lat="49.03691" lon="7.73588">
        <ele>398.12</ele>
        <time>2017-07-11T12:52:08Z</time>
      </trkpt>
      <trkpt lat="49.03703" lon="7.73591">
        <ele>399.08</ele>
        <time>2017-07-11T12:52:29Z</time>
      </trkpt>
      <trkpt lat="49.03733" lon="7.73597">
        <ele>400.05</ele>
        <time>2017-07-11T12:52:49Z</time>
      </trkpt>
      <trkpt lat="49.03744" lon="7.73594">
        <ele>401.01</ele>
        <time>2017-07-11T12:53:12Z</time>
      </trkpt>
      <trkpt lat="49.0376" lon="7.73592">
        <ele>401.49</ele>
        <time>2017-07-11T12:53:28Z</time>
      </trkpt>
      <trkpt lat="49.03776" lon="7.73593">
        <ele>402.45</ele>
        <time>2017-07-11T12:53:40Z</time>
      </trkpt>
      <trkpt lat="49.03801" lon="7.73611">
        <ele>403.41</ele>
        <time>2017-07-11T12:53:55Z</time>
      </trkpt>
      <trkpt lat="49.03818" lon="7.73632">
        <ele>404.37</ele>
        <time>2017-07-11T12:54:15Z</time>
      </trkpt>
      <trkpt lat="49.03826" lon="7.73648">
        <ele>405.33</ele>
        <time>2017-07-11T12:54:27Z</time>
      </trkpt>
      <trkpt lat="49.03839" lon="7.73659">
        <ele>405.81</ele>
        <time>2017-07-11T12:54:39Z</time>
      </trkpt>
      <trkpt lat="49.03863" lon="7.73672">
        <ele>406.29</ele>
        <time>2017-07-11T12:54:51Z</time>
      </trkpt>
      <trkpt lat="49.03875" lon="7.73696">
        <ele>406.77</ele>
        <time>2017-07-11T12:55:07Z</time>
      </trkpt>
      <trkpt lat="49.03882" lon="7.73716">
        <ele>407.26</ele>
        <time>2017-07-11T12:55:20Z</time>
      </trkpt>
      <trkpt lat="49.03892" lon="7.73727">
        <ele>407.74</ele>
        <time>2017-07-11T12:55:32Z</time>
      </trkpt>
      <trkpt lat="49.03897" lon="7.73746">
        <ele>408.22</ele>
        <time>2017-07-11T12:55:44Z</time>
      </trkpt>
      <trkpt lat="49.03906" lon="7.73766">
        <ele>408.7</ele>
        <time>2017-07-11T12:55:56Z</time>
      </trkpt>
      <trkpt lat="49.03913" lon="7.73789">
        <ele>409.66</ele>
        <time>2017-07-11T12:56:11Z</time>
      </trkpt>
      <trkpt lat="49.03921" lon="7.73808">
        <ele>410.14</ele>
        <time>2017-07-11T12:56:24Z</time>
      </trkpt>
      <trkpt lat="49.03932" lon="7.7384">
        <ele>411.1</ele>
        <time>2017-07-11T12:56:41Z</time>
      </trkpt>
      <trkpt lat="49.03935" lon="7.73862">
        <ele>412.06</ele>
        <time>2017-07-11T12:56:56Z</time>
      </trkpt>
      <trkpt lat="49.03938" lon="7.73887">
        <ele>412.06</ele>
        <time>2017-07-11T12:57:10Z</time>
      </trkpt>
      <trkpt lat="49.03944" lon="7.7391">
        <ele>413.5</ele>
        <time>2017-07-11T12:57:26Z</time>
      </trkpt>
      <trkpt lat="49.03945" lon="7.73938">
        <ele>413.5</ele>
        <time>2017-07-11T12:57:39Z</time>
      </trkpt>
      <trkpt lat="49.03949" lon="7.73961">
        <ele>413.98</ele>
        <time>2017-07-11T12:57:52Z</time>
      </trkpt>
      <trkpt lat="49.03949" lon="7.73984">
        <ele>414.47</ele>
        <time>2017-07-11T12:58:05Z</time>
      </trkpt>
      <trkpt lat="49.03952" lon="7.74007">
        <ele>415.43</ele>
        <time>2017-07-11T12:58:18Z</time>
      </trkpt>
      <trkpt lat="49.03956" lon="7.74028">
        <ele>415.43</ele>
        <time>2017-07-11T12:58:33Z</time>
      </trkpt>
      <trkpt lat="49.03951" lon="7.74051">
        <ele>415.91</ele>
        <time>2017-07-11T12:58:48Z</time>
      </trkpt>
      <trkpt lat="49.03953" lon="7.74072">
        <ele>415.91</ele>
        <time>2017-07-11T12:58:58Z</time>
      </trkpt>
      <trkpt lat="49.0395" lon="7.74093">
        <ele>415.43</ele>
        <time>2017-07-11T12:59:08Z</time>
      </trkpt>
      <trkpt lat="49.03947" lon="7.74125">
        <ele>414.95</ele>
        <time>2017-07-11T12:59:24Z</time>
      </trkpt>
      <trkpt lat="49.03943" lon="7.74155">
        <ele>414.47</ele>
        <time>2017-07-11T12:59:37Z</time>
      </trkpt>
      <trkpt lat="49.03947" lon="7.7418">
        <ele>413.5</ele>
        <time>2017-07-11T12:59:48Z</time>
      </trkpt>
      <trkpt lat="49.03942" lon="7.74204">
        <ele>412.54</ele>
        <time>2017-07-11T13:00:00Z</time>
      </trkpt>
      <trkpt lat="49.03935" lon="7.74226">
        <ele>411.1</ele>
        <time>2017-07-11T13:00:12Z</time>
      </trkpt>
      <trkpt lat="49.03927" lon="7.7425">
        <ele>409.66</ele>
        <time>2017-07-11T13:00:24Z</time>
      </trkpt>
      <trkpt lat="49.03918" lon="7.7427">
        <ele>408.7</ele>
        <time>2017-07-11T13:00:34Z</time>
      </trkpt>
      <trkpt lat="49.03915" lon="7.7428">
        <ele>408.7</ele>
        <time>2017-07-11T13:02:15Z</time>
      </trkpt>
      <trkpt lat="49.03919" lon="7.74268">
        <ele>410.14</ele>
        <time>2017-07-11T13:02:28Z</time>
      </trkpt>
      <trkpt lat="49.03922" lon="7.74252">
        <ele>410.62</ele>
        <time>2017-07-11T13:02:39Z</time>
      </trkpt>
      <trkpt lat="49.03929" lon="7.74238">
        <ele>411.58</ele>
        <time>2017-07-11T13:02:51Z</time>
      </trkpt>
      <trkpt lat="49.03934" lon="7.74221">
        <ele>412.06</ele>
        <time>2017-07-11T13:03:02Z</time>
      </trkpt>
      <trkpt lat="49.0394" lon="7.74207">
        <ele>412.54</ele>
        <time>2017-07-11T13:03:11Z</time>
      </trkpt>
      <trkpt lat="49.03943" lon="7.74191">
        <ele>413.98</ele>
        <time>2017-07-11T13:03:21Z</time>
      </trkpt>
      <trkpt lat="49.03945" lon="7.74173">
        <ele>414.47</ele>
        <time>2017-07-11T13:03:31Z</time>
      </trkpt>
      <trkpt lat="49.03945" lon="7.74154">
        <ele>414.47</ele>
        <time>2017-07-11T13:03:42Z</time>
      </trkpt>
      <trkpt lat="49.03946" lon="7.74138">
        <ele>415.43</ele>
        <time>2017-07-11T13:03:52Z</time>
      </trkpt>
      <trkpt lat="49.03946" lon="7.74115">
        <ele>415.91</ele>
        <time>2017-07-11T13:04:02Z</time>
      </trkpt>
      <trkpt lat="49.03946" lon="7.74093">
        <ele>415.43</ele>
        <time>2017-07-11T13:04:13Z</time>
      </trkpt>
      <trkpt lat="49.03946" lon="7.7407">
        <ele>415.43</ele>
        <time>2017-07-11T13:04:25Z</time>
      </trkpt>
      <trkpt lat="49.03948" lon="7.74049">
        <ele>414.95</ele>
        <time>2017-07-11T13:04:40Z</time>
      </trkpt>
      <trkpt lat="49.03947" lon="7.74024">
        <ele>415.43</ele>
        <time>2017-07-11T13:04:54Z</time>
      </trkpt>
      <trkpt lat="49.03944" lon="7.73997">
        <ele>413.98</ele>
        <time>2017-07-11T13:05:07Z</time>
      </trkpt>
      <trkpt lat="49.03942" lon="7.7398">
        <ele>413.02</ele>
        <time>2017-07-11T13:05:17Z</time>
      </trkpt>
      <trkpt lat="49.03942" lon="7.7396">
        <ele>413.02</ele>
        <time>2017-07-11T13:05:29Z</time>
      </trkpt>
      <trkpt lat="49.03939" lon="7.7394">
        <ele>413.02</ele>
        <time>2017-07-11T13:05:39Z</time>
      </trkpt>
      <trkpt lat="49.03933" lon="7.73927">
        <ele>412.06</ele>
        <time>2017-07-11T13:05:47Z</time>
      </trkpt>
      <trkpt lat="49.03931" lon="7.73913">
        <ele>411.1</ele>
        <time>2017-07-11T13:05:58Z</time>
      </trkpt>
      <trkpt lat="49.03929" lon="7.73891">
        <ele>410.62</ele>
        <time>2017-07-11T13:06:07Z</time>
      </trkpt>
      <trkpt lat="49.03922" lon="7.73872">
        <ele>410.14</ele>
        <time>2017-07-11T13:06:18Z</time>
      </trkpt>
      <trkpt lat="49.03919" lon="7.73855">
        <ele>409.66</ele>
        <time>2017-07-11T13:06:29Z</time>
      </trkpt>
      <trkpt lat="49.03913" lon="7.73836">
        <ele>409.18</ele>
        <time>2017-07-11T13:06:42Z</time>
      </trkpt>
      <trkpt lat="49.03902" lon="7.73811">
        <ele>408.7</ele>
        <time>2017-07-11T13:06:52Z</time>
      </trkpt>
      <trkpt lat="49.03899" lon="7.73794">
        <ele>408.22</ele>
        <time>2017-07-11T13:07:02Z</time>
      </trkpt>
      <trkpt lat="49.03897" lon="7.73782">
        <ele>407.74</ele>
        <time>2017-07-11T13:07:13Z</time>
      </trkpt>
      <trkpt lat="49.03892" lon="7.73762">
        <ele>407.74</ele>
        <time>2017-07-11T13:07:23Z</time>
      </trkpt>
      <trkpt lat="49.03888" lon="7.73746">
        <ele>407.26</ele>
        <time>2017-07-11T13:07:33Z</time>
      </trkpt>
      <trkpt lat="49.0388" lon="7.73735">
        <ele>405.81</ele>
        <time>2017-07-11T13:07:43Z</time>
      </trkpt>
      <trkpt lat="49.03873" lon="7.73725">
        <ele>406.29</ele>
        <time>2017-07-11T13:07:53Z</time>
      </trkpt>
      <trkpt lat="49.03867" lon="7.73711">
        <ele>405.81</ele>
        <time>2017-07-11T13:08:04Z</time>
      </trkpt>
      <trkpt lat="49.03858" lon="7.73691">
        <ele>406.77</ele>
        <time>2017-07-11T13:08:16Z</time>
      </trkpt>
      <trkpt lat="49.03849" lon="7.73672">
        <ele>406.29</ele>
        <time>2017-07-11T13:08:25Z</time>
      </trkpt>
      <trkpt lat="49.0384" lon="7.73659">
        <ele>405.81</ele>
        <time>2017-07-11T13:08:36Z</time>
      </trkpt>
      <trkpt lat="49.0383" lon="7.7365">
        <ele>404.85</ele>
        <time>2017-07-11T13:08:44Z</time>
      </trkpt>
      <trkpt lat="49.03821" lon="7.73643">
        <ele>404.37</ele>
        <time>2017-07-11T13:08:54Z</time>
      </trkpt>
      <trkpt lat="49.03811" lon="7.73633">
        <ele>404.85</ele>
        <time>2017-07-11T13:09:04Z</time>
      </trkpt>
      <trkpt lat="49.038" lon="7.73622">
        <ele>402.93</ele>
        <time>2017-07-11T13:09:17Z</time>
      </trkpt>
      <trkpt lat="49.03786" lon="7.73614">
        <ele>402.45</ele>
        <time>2017-07-11T13:09:28Z</time>
      </trkpt>
      <trkpt lat="49.03772" lon="7.73612">
        <ele>401.97</ele>
        <time>2017-07-11T13:09:41Z</time>
      </trkpt>
      <trkpt lat="49.03762" lon="7.73605">
        <ele>401.49</ele>
        <time>2017-07-11T13:09:50Z</time>
      </trkpt>
      <trkpt lat="49.03749" lon="7.73605">
        <ele>401.97</ele>
        <time>2017-07-11T13:10:00Z</time>
      </trkpt>
      <trkpt lat="49.03737" lon="7.73599">
        <ele>400.05</ele>
        <time>2017-07-11T13:10:09Z</time>
      </trkpt>
      <trkpt lat="49.03725" lon="7.73598">
        <ele>400.53</ele>
        <time>2017-07-11T13:10:17Z</time>
      </trkpt>
      <trkpt lat="49.03714" lon="7.73599">
        <ele>400.05</ele>
        <time>2017-07-11T13:10:26Z</time>
      </trkpt>
      <trkpt lat="49.03703" lon="7.73599">
        <ele>399.57</ele>
        <time>2017-07-11T13:10:33Z</time>
      </trkpt>
      <trkpt lat="49.03693" lon="7.73596">
        <ele>399.57</ele>
        <time>2017-07-11T13:10:42Z</time>
      </trkpt>
      <trkpt lat="49.03682" lon="7.73594">
        <ele>398.6</ele>
        <time>2017-07-11T13:10:51Z</time>
      </trkpt>
      <trkpt lat="49.0367" lon="7.73591">
        <ele>397.64</ele>
        <time>2017-07-11T13:11:00Z</time>
      </trkpt>
      <trkpt lat="49.03661" lon="7.73589">
        <ele>398.12</ele>
        <time>2017-07-11T13:11:07Z</time>
      </trkpt>
      <trkpt lat="49.0365" lon="7.73589">
        <ele>396.68</ele>
        <time>2017-07-11T13:11:15Z</time>
      </trkpt>
      <trkpt lat="49.03639" lon="7.73586">
        <ele>396.2</ele>
        <time>2017-07-11T13:11:24Z</time>
      </trkpt>
      <trkpt lat="49.03627" lon="7.73585">
        <ele>395.72</ele>
        <time>2017-07-11T13:11:35Z</time>
      </trkpt>
      <trkpt lat="49.03611" lon="7.73583">
        <ele>395.24</ele>
        <time>2017-07-11T13:11:45Z</time>
      </trkpt>
      <trkpt lat="49.03596" lon="7.73584">
        <ele>394.28</ele>
        <time>2017-07-11T13:12:00Z</time>
      </trkpt>
      <trkpt lat="49.03583" lon="7.7358">
        <ele>393.8</ele>
        <time>2017-07-11T13:12:08Z</time>
      </trkpt>
      <trkpt lat="49.03573" lon="7.73586">
        <ele>392.84</ele>
        <time>2017-07-11T13:12:19Z</time>
      </trkpt>
      <trkpt lat="49.03562" lon="7.73583">
        <ele>392.84</ele>
        <time>2017-07-11T13:12:29Z</time>
      </trkpt>
      <trkpt lat="49.03548" lon="7.7358">
        <ele>391.87</ele>
        <time>2017-07-11T13:12:39Z</time>
      </trkpt>
      <trkpt lat="49.03536" lon="7.73581">
        <ele>391.87</ele>
        <time>2017-07-11T13:12:48Z</time>
      </trkpt>
      <trkpt lat="49.0352" lon="7.73577">
        <ele>391.39</ele>
        <time>2017-07-11T13:13:00Z</time>
      </trkpt>
      <trkpt lat="49.03512" lon="7.73578">
        <ele>390.43</ele>
        <time>2017-07-11T13:13:12Z</time>
      </trkpt>
      <trkpt lat="49.03498" lon="7.73575">
        <ele>390.43</ele>
        <time>2017-07-11T13:13:22Z</time>
      </trkpt>
      <trkpt lat="49.03481" lon="7.73576">
        <ele>390.43</ele>
        <time>2017-07-11T13:13:31Z</time>
      </trkpt>
      <trkpt lat="49.0347" lon="7.73574">
        <ele>388.99</ele>
        <time>2017-07-11T13:13:42Z</time>
      </trkpt>
      <trkpt lat="49.03458" lon="7.73576">
        <ele>388.99</ele>
        <time>2017-07-11T13:13:52Z</time>
      </trkpt>
      <trkpt lat="49.03447" lon="7.73579">
        <ele>388.51</ele>
        <time>2017-07-11T13:14:01Z</time>
      </trkpt>
      <trkpt lat="49.03436" lon="7.73577">
        <ele>388.03</ele>
        <time>2017-07-11T13:14:10Z</time>
      </trkpt>
      <trkpt lat="49.03425" lon="7.73581">
        <ele>388.03</ele>
        <time>2017-07-11T13:14:19Z</time>
      </trkpt>
      <trkpt lat="49.03416" lon="7.73582">
        <ele>387.55</ele>
        <time>2017-07-11T13:14:27Z</time>
      </trkpt>
      <trkpt lat="49.03407" lon="7.73582">
        <ele>387.07</ele>
        <time>2017-07-11T13:14:38Z</time>
      </trkpt>
      <trkpt lat="49.03397" lon="7.73584">
        <ele>387.07</ele>
        <time>2017-07-11T13:14:46Z</time>
      </trkpt>
      <trkpt lat="49.03388" lon="7.73585">
        <ele>386.59</ele>
        <time>2017-07-11T13:14:55Z</time>
      </trkpt>
      <trkpt lat="49.03377" lon="7.73584">
        <ele>386.11</ele>
        <time>2017-07-11T13:15:04Z</time>
      </trkpt>
      <trkpt lat="49.03366" lon="7.73574">
        <ele>385.63</ele>
        <time>2017-07-11T13:15:16Z</time>
      </trkpt>
      <trkpt lat="49.03356" lon="7.73556">
        <ele>385.15</ele>
        <time>2017-07-11T13:15:29Z</time>
      </trkpt>
      <trkpt lat="49.03347" lon="7.73546">
        <ele>385.15</ele>
        <time>2017-07-11T13:15:43Z</time>
      </trkpt>
      <trkpt lat="49.0335" lon="7.73554">
        <ele>386.59</ele>
        <time>2017-07-11T13:18:43Z</time>
      </trkpt>
      <trkpt lat="49.03346" lon="7.73551">
        <ele>387.07</ele>
        <time>2017-07-11T13:20:06Z</time>
      </trkpt>
      <trkpt lat="49.03345" lon="7.73546">
        <ele>386.59</ele>
        <time>2017-07-11T13:22:15Z</time>
      </trkpt>
      <trkpt lat="49.0334" lon="7.73558">
        <ele>381.78</ele>
        <time>2017-07-11T13:22:40Z</time>
      </trkpt>
      <trkpt lat="49.03345" lon="7.73574">
        <ele>380.82</ele>
        <time>2017-07-11T13:23:31Z</time>
      </trkpt>
      <trkpt lat="49.03359" lon="7.73617">
        <ele>378.9</ele>
        <time>2017-07-11T13:23:49Z</time>
      </trkpt>
      <trkpt lat="49.03372" lon="7.73628">
        <ele>378.42</ele>
        <time>2017-07-11T13:24:09Z</time>
      </trkpt>
      <trkpt lat="49.03388" lon="7.73635">
        <ele>373.61</ele>
        <time>2017-07-11T13:24:38Z</time>
      </trkpt>
      <trkpt lat="49.03397" lon="7.73629">
        <ele>373.13</ele>
        <time>2017-07-11T13:24:45Z</time>
      </trkpt>
      <trkpt lat="49.03403" lon="7.7362">
        <ele>372.17</ele>
        <time>2017-07-11T13:24:52Z</time>
      </trkpt>
      <trkpt lat="49.03415" lon="7.73615">
        <ele>370.73</ele>
        <time>2017-07-11T13:25:01Z</time>
      </trkpt>
      <trkpt lat="49.03438" lon="7.73617">
        <ele>369.28</ele>
        <time>2017-07-11T13:25:19Z</time>
      </trkpt>
      <trkpt lat="49.03448" lon="7.73627">
        <ele>368.32</ele>
        <time>2017-07-11T13:25:58Z</time>
      </trkpt>
      <trkpt lat="49.0346" lon="7.73628">
        <ele>366.4</ele>
        <time>2017-07-11T13:26:28Z</time>
      </trkpt>
      <trkpt lat="49.03486" lon="7.73627">
        <ele>365.92</ele>
        <time>2017-07-11T13:26:45Z</time>
      </trkpt>
      <trkpt lat="49.03496" lon="7.73629">
        <ele>366.4</ele>
        <time>2017-07-11T13:27:08Z</time>
      </trkpt>
      <trkpt lat="49.03524" lon="7.73633">
        <ele>365.92</ele>
        <time>2017-07-11T13:27:26Z</time>
      </trkpt>
      <trkpt lat="49.03543" lon="7.73639">
        <ele>365.44</ele>
        <time>2017-07-11T13:27:54Z</time>
      </trkpt>
      <trkpt lat="49.03556" lon="7.73649">
        <ele>365.44</ele>
        <time>2017-07-11T13:28:06Z</time>
      </trkpt>
      <trkpt lat="49.03563" lon="7.73649">
        <ele>365.44</ele>
        <time>2017-07-11T13:28:22Z</time>
      </trkpt>
      <trkpt lat="49.0358" lon="7.73649">
        <ele>365.44</ele>
        <time>2017-07-11T13:28:34Z</time>
      </trkpt>
      <trkpt lat="49.03606" lon="7.73654">
        <ele>366.4</ele>
        <time>2017-07-11T13:28:56Z</time>
      </trkpt>
      <trkpt lat="49.03621" lon="7.73658">
        <ele>364.48</ele>
        <time>2017-07-11T13:29:19Z</time>
      </trkpt>
      <trkpt lat="49.03655" lon="7.73661">
        <ele>364.48</ele>
        <time>2017-07-11T13:29:48Z</time>
      </trkpt>
      <trkpt lat="49.03669" lon="7.73669">
        <ele>364.96</ele>
        <time>2017-07-11T13:30:10Z</time>
      </trkpt>
      <trkpt lat="49.03692" lon="7.73681">
        <ele>363.52</ele>
        <time>2017-07-11T13:30:36Z</time>
      </trkpt>
      <trkpt lat="49.03714" lon="7.73681">
        <ele>363.52</ele>
        <time>2017-07-11T13:30:56Z</time>
      </trkpt>
      <trkpt lat="49.03737" lon="7.73691">
        <ele>364</ele>
        <time>2017-07-11T13:31:21Z</time>
      </trkpt>
      <trkpt lat="49.03749" lon="7.73696">
        <ele>363.04</ele>
        <time>2017-07-11T13:31:45Z</time>
      </trkpt>
      <trkpt lat="49.03776" lon="7.73719">
        <ele>362.07</ele>
        <time>2017-07-11T13:32:16Z</time>
      </trkpt>
      <trkpt lat="49.03794" lon="7.73738">
        <ele>362.07</ele>
        <time>2017-07-11T13:32:52Z</time>
      </trkpt>
      <trkpt lat="49.03804" lon="7.7376">
        <ele>361.11</ele>
        <time>2017-07-11T13:33:18Z</time>
      </trkpt>
      <trkpt lat="49.03821" lon="7.7379">
        <ele>362.55</ele>
        <time>2017-07-11T13:33:35Z</time>
      </trkpt>
      <trkpt lat="49.03833" lon="7.73821">
        <ele>362.55</ele>
        <time>2017-07-11T13:33:55Z</time>
      </trkpt>
      <trkpt lat="49.0384" lon="7.73843">
        <ele>363.04</ele>
        <time>2017-07-11T13:34:09Z</time>
      </trkpt>
      <trkpt lat="49.03843" lon="7.73863">
        <ele>362.07</ele>
        <time>2017-07-11T13:34:35Z</time>
      </trkpt>
      <trkpt lat="49.03845" lon="7.73882">
        <ele>357.27</ele>
        <time>2017-07-11T13:34:57Z</time>
      </trkpt>
      <trkpt lat="49.03851" lon="7.73921">
        <ele>357.75</ele>
        <time>2017-07-11T13:35:23Z</time>
      </trkpt>
      <trkpt lat="49.03858" lon="7.73947">
        <ele>359.19</ele>
        <time>2017-07-11T13:35:39Z</time>
      </trkpt>
      <trkpt lat="49.03862" lon="7.73974">
        <ele>360.15</ele>
        <time>2017-07-11T13:35:55Z</time>
      </trkpt>
      <trkpt lat="49.03861" lon="7.74008">
        <ele>362.07</ele>
        <time>2017-07-11T13:36:13Z</time>
      </trkpt>
      <trkpt lat="49.03863" lon="7.74036">
        <ele>364</ele>
        <time>2017-07-11T13:36:30Z</time>
      </trkpt>
      <trkpt lat="49.03867" lon="7.74068">
        <ele>365.44</ele>
        <time>2017-07-11T13:36:48Z</time>
      </trkpt>
      <trkpt lat="49.03872" lon="7.74083">
        <ele>365.92</ele>
        <time>2017-07-11T13:37:25Z</time>
      </trkpt>
      <trkpt lat="49.0386" lon="7.74106">
        <ele>361.59</ele>
        <time>2017-07-11T13:37:56Z</time>
      </trkpt>
      <trkpt lat="49.0385" lon="7.74107">
        <ele>355.83</ele>
        <time>2017-07-11T13:38:31Z</time>
      </trkpt>
      <trkpt lat="49.03842" lon="7.74113">
        <ele>351.5</ele>
        <time>2017-07-11T13:38:56Z</time>
      </trkpt>
      <trkpt lat="49.03839" lon="7.74135">
        <ele>348.13</ele>
        <time>2017-07-11T13:39:14Z</time>
      </trkpt>
      <trkpt lat="49.03829" lon="7.74164">
        <ele>345.25</ele>
        <time>2017-07-11T13:39:30Z</time>
      </trkpt>
      <trkpt lat="49.03812" lon="7.74197">
        <ele>342.37</ele>
        <time>2017-07-11T13:39:50Z</time>
      </trkpt>
      <trkpt lat="49.03802" lon="7.74216">
        <ele>339</ele>
        <time>2017-07-11T13:40:06Z</time>
      </trkpt>
      <trkpt lat="49.03787" lon="7.74237">
        <ele>336.6</ele>
        <time>2017-07-11T13:40:20Z</time>
      </trkpt>
      <trkpt lat="49.03771" lon="7.74252">
        <ele>334.2</ele>
        <time>2017-07-11T13:40:36Z</time>
      </trkpt>
      <trkpt lat="49.03755" lon="7.74265">
        <ele>331.31</ele>
        <time>2017-07-11T13:40:50Z</time>
      </trkpt>
      <trkpt lat="49.03742" lon="7.74282">
        <ele>328.91</ele>
        <time>2017-07-11T13:41:04Z</time>
      </trkpt>
      <trkpt lat="49.03732" lon="7.74311">
        <ele>326.99</ele>
        <time>2017-07-11T13:41:24Z</time>
      </trkpt>
      <trkpt lat="49.03725" lon="7.74321">
        <ele>326.02</ele>
        <time>2017-07-11T13:43:06Z</time>
      </trkpt>
      <trkpt lat="49.03721" lon="7.74313">
        <ele>325.06</ele>
        <time>2017-07-11T13:45:09Z</time>
      </trkpt>
      <trkpt lat="49.03724" lon="7.74322">
        <ele>326.5</ele>
        <time>2017-07-11T14:03:36Z</time>
      </trkpt>
      <trkpt lat="49.03724" lon="7.74325">
        <ele>326.5</ele>
        <time>2017-07-11T14:06:06Z</time>
      </trkpt>
      <trkpt lat="49.03728" lon="7.74331">
        <ele>326.5</ele>
        <time>2017-07-11T14:06:27Z</time>
      </trkpt>
      <trkpt lat="49.03715" lon="7.74347">
        <ele>327.47</ele>
        <time>2017-07-11T14:06:40Z</time>
      </trkpt>
      <trkpt lat="49.03708" lon="7.74343">
        <ele>324.58</ele>
        <time>2017-07-11T14:07:05Z</time>
      </trkpt>
      <trkpt lat="49.0371" lon="7.74349">
        <ele>321.7</ele>
        <time>2017-07-11T14:07:24Z</time>
      </trkpt>
      <trkpt lat="49.03714" lon="7.7436">
        <ele>318.81</ele>
        <time>2017-07-11T14:07:37Z</time>
      </trkpt>
      <trkpt lat="49.037" lon="7.74356">
        <ele>315.45</ele>
        <time>2017-07-11T14:08:21Z</time>
      </trkpt>
      <trkpt lat="49.03686" lon="7.7435">
        <ele>313.05</ele>
        <time>2017-07-11T14:08:34Z</time>
      </trkpt>
      <trkpt lat="49.03677" lon="7.74342">
        <ele>308.24</ele>
        <time>2017-07-11T14:08:47Z</time>
      </trkpt>
      <trkpt lat="49.03667" lon="7.74333">
        <ele>304.88</ele>
        <time>2017-07-11T14:08:59Z</time>
      </trkpt>
      <trkpt lat="49.03657" lon="7.74329">
        <ele>303.43</ele>
        <time>2017-07-11T14:09:09Z</time>
      </trkpt>
      <trkpt lat="49.03655" lon="7.74325">
        <ele>302.95</ele>
        <time>2017-07-11T14:10:03Z</time>
      </trkpt>
      <trkpt lat="49.03659" lon="7.74316">
        <ele>303.43</ele>
        <time>2017-07-11T14:10:38Z</time>
      </trkpt>
      <trkpt lat="49.03662" lon="7.74301">
        <ele>301.99</ele>
        <time>2017-07-11T14:10:52Z</time>
      </trkpt>
      <trkpt lat="49.03669" lon="7.7429">
        <ele>301.51</ele>
        <time>2017-07-11T14:11:05Z</time>
      </trkpt>
      <trkpt lat="49.03673" lon="7.7427">
        <ele>300.07</ele>
        <time>2017-07-11T14:11:18Z</time>
      </trkpt>
      <trkpt lat="49.03681" lon="7.74247">
        <ele>298.63</ele>
        <time>2017-07-11T14:11:30Z</time>
      </trkpt>
      <trkpt lat="49.03693" lon="7.74239">
        <ele>298.15</ele>
        <time>2017-07-11T14:11:40Z</time>
      </trkpt>
      <trkpt lat="49.03701" lon="7.74223">
        <ele>297.67</ele>
        <time>2017-07-11T14:11:51Z</time>
      </trkpt>
      <trkpt lat="49.03707" lon="7.74205">
        <ele>296.7</ele>
        <time>2017-07-11T14:12:03Z</time>
      </trkpt>
      <trkpt lat="49.03716" lon="7.74192">
        <ele>295.74</ele>
        <time>2017-07-11T14:12:12Z</time>
      </trkpt>
      <trkpt lat="49.03725" lon="7.74179">
        <ele>295.74</ele>
        <time>2017-07-11T14:12:21Z</time>
      </trkpt>
      <trkpt lat="49.03729" lon="7.74161">
        <ele>294.3</ele>
        <time>2017-07-11T14:12:31Z</time>
      </trkpt>
      <trkpt lat="49.03733" lon="7.74152">
        <ele>293.82</ele>
        <time>2017-07-11T14:12:54Z</time>
      </trkpt>
      <trkpt lat="49.0374" lon="7.74138">
        <ele>294.3</ele>
        <time>2017-07-11T14:13:29Z</time>
      </trkpt>
      <trkpt lat="49.03744" lon="7.74121">
        <ele>294.3</ele>
        <time>2017-07-11T14:13:42Z</time>
      </trkpt>
      <trkpt lat="49.03747" lon="7.74105">
        <ele>293.82</ele>
        <time>2017-07-11T14:13:54Z</time>
      </trkpt>
      <trkpt lat="49.03756" lon="7.74087">
        <ele>293.82</ele>
        <time>2017-07-11T14:14:09Z</time>
      </trkpt>
      <trkpt lat="49.03757" lon="7.74053">
        <ele>293.82</ele>
        <time>2017-07-11T14:14:22Z</time>
      </trkpt>
      <trkpt lat="49.03754" lon="7.74025">
        <ele>293.82</ele>
        <time>2017-07-11T14:14:32Z</time>
      </trkpt>
      <trkpt lat="49.03758" lon="7.74006">
        <ele>293.82</ele>
        <time>2017-07-11T14:14:42Z</time>
      </trkpt>
      <trkpt lat="49.03758" lon="7.73988">
        <ele>293.82</ele>
        <time>2017-07-11T14:14:54Z</time>
      </trkpt>
      <trkpt lat="49.03759" lon="7.7397">
        <ele>293.82</ele>
        <time>2017-07-11T14:15:06Z</time>
      </trkpt>
      <trkpt lat="49.03756" lon="7.73953">
        <ele>293.82</ele>
        <time>2017-07-11T14:15:17Z</time>
      </trkpt>
      <trkpt lat="49.03752" lon="7.73937">
        <ele>294.3</ele>
        <time>2017-07-11T14:15:26Z</time>
      </trkpt>
      <trkpt lat="49.03748" lon="7.73925">
        <ele>294.3</ele>
        <time>2017-07-11T14:15:33Z</time>
      </trkpt>
      <trkpt lat="49.03741" lon="7.73913">
        <ele>294.3</ele>
        <time>2017-07-11T14:15:42Z</time>
      </trkpt>
      <trkpt lat="49.03736" lon="7.73901">
        <ele>294.3</ele>
        <time>2017-07-11T14:15:49Z</time>
      </trkpt>
      <trkpt lat="49.03726" lon="7.73885">
        <ele>294.78</ele>
        <time>2017-07-11T14:15:58Z</time>
      </trkpt>
      <trkpt lat="49.03719" lon="7.73874">
        <ele>295.26</ele>
        <time>2017-07-11T14:16:07Z</time>
      </trkpt>
      <trkpt lat="49.03712" lon="7.73862">
        <ele>294.78</ele>
        <time>2017-07-11T14:16:16Z</time>
      </trkpt>
      <trkpt lat="49.03699" lon="7.73854">
        <ele>295.26</ele>
        <time>2017-07-11T14:16:25Z</time>
      </trkpt>
      <trkpt lat="49.03686" lon="7.73849">
        <ele>295.74</ele>
        <time>2017-07-11T14:16:34Z</time>
      </trkpt>
      <trkpt lat="49.03678" lon="7.73842">
        <ele>295.74</ele>
        <time>2017-07-11T14:16:42Z</time>
      </trkpt>
      <trkpt lat="49.03667" lon="7.73834">
        <ele>295.74</ele>
        <time>2017-07-11T14:16:52Z</time>
      </trkpt>
      <trkpt lat="49.03657" lon="7.73828">
        <ele>296.22</ele>
        <time>2017-07-11T14:17:00Z</time>
      </trkpt>
      <trkpt lat="49.03648" lon="7.73825">
        <ele>296.7</ele>
        <time>2017-07-11T14:17:08Z</time>
      </trkpt>
      <trkpt lat="49.03636" lon="7.73819">
        <ele>296.7</ele>
        <time>2017-07-11T14:17:19Z</time>
      </trkpt>
      <trkpt lat="49.03622" lon="7.73815">
        <ele>296.7</ele>
        <time>2017-07-11T14:17:28Z</time>
      </trkpt>
      <trkpt lat="49.03613" lon="7.73813">
        <ele>296.7</ele>
        <time>2017-07-11T14:17:37Z</time>
      </trkpt>
      <trkpt lat="49.03598" lon="7.73808">
        <ele>297.18</ele>
        <time>2017-07-11T14:17:49Z</time>
      </trkpt>
      <trkpt lat="49.03586" lon="7.73806">
        <ele>297.18</ele>
        <time>2017-07-11T14:17:57Z</time>
      </trkpt>
      <trkpt lat="49.03571" lon="7.73802">
        <ele>297.18</ele>
        <time>2017-07-11T14:18:06Z</time>
      </trkpt>
      <trkpt lat="49.0356" lon="7.73797">
        <ele>297.18</ele>
        <time>2017-07-11T14:18:15Z</time>
      </trkpt>
      <trkpt lat="49.0355" lon="7.73793">
        <ele>297.18</ele>
        <time>2017-07-11T14:18:24Z</time>
      </trkpt>
      <trkpt lat="49.03537" lon="7.73786">
        <ele>297.18</ele>
        <time>2017-07-11T14:18:35Z</time>
      </trkpt>
      <trkpt lat="49.03521" lon="7.73785">
        <ele>297.67</ele>
        <time>2017-07-11T14:18:47Z</time>
      </trkpt>
      <trkpt lat="49.03503" lon="7.73781">
        <ele>297.67</ele>
        <time>2017-07-11T14:19:02Z</time>
      </trkpt>
      <trkpt lat="49.03488" lon="7.73772">
        <ele>297.67</ele>
        <time>2017-07-11T14:19:16Z</time>
      </trkpt>
      <trkpt lat="49.0347" lon="7.73769">
        <ele>297.18</ele>
        <time>2017-07-11T14:19:29Z</time>
      </trkpt>
      <trkpt lat="49.03455" lon="7.73768">
        <ele>297.18</ele>
        <time>2017-07-11T14:19:44Z</time>
      </trkpt>
      <trkpt lat="49.03439" lon="7.73771">
        <ele>296.7</ele>
        <time>2017-07-11T14:19:56Z</time>
      </trkpt>
      <trkpt lat="49.03423" lon="7.73767">
        <ele>296.22</ele>
        <time>2017-07-11T14:20:14Z</time>
      </trkpt>
      <trkpt lat="49.03403" lon="7.73767">
        <ele>295.74</ele>
        <time>2017-07-11T14:20:33Z</time>
      </trkpt>
      <trkpt lat="49.03382" lon="7.73763">
        <ele>294.78</ele>
        <time>2017-07-11T14:20:49Z</time>
      </trkpt>
      <trkpt lat="49.03365" lon="7.73756">
        <ele>294.78</ele>
        <time>2017-07-11T14:21:05Z</time>
      </trkpt>
      <trkpt lat="49.03353" lon="7.73767">
        <ele>294.3</ele>
        <time>2017-07-11T14:21:20Z</time>
      </trkpt>
      <trkpt lat="49.03332" lon="7.73764">
        <ele>293.34</ele>
        <time>2017-07-11T14:21:32Z</time>
      </trkpt>
      <trkpt lat="49.03316" lon="7.73759">
        <ele>293.34</ele>
        <time>2017-07-11T14:21:43Z</time>
      </trkpt>
      <trkpt lat="49.03299" lon="7.73747">
        <ele>293.34</ele>
        <time>2017-07-11T14:21:59Z</time>
      </trkpt>
      <trkpt lat="49.03287" lon="7.73732">
        <ele>292.86</ele>
        <time>2017-07-11T14:22:09Z</time>
      </trkpt>
      <trkpt lat="49.03278" lon="7.73727">
        <ele>292.86</ele>
        <time>2017-07-11T14:22:18Z</time>
      </trkpt>
      <trkpt lat="49.03268" lon="7.7372">
        <ele>290.94</ele>
        <time>2017-07-11T14:22:27Z</time>
      </trkpt>
      <trkpt lat="49.03258" lon="7.73714">
        <ele>289.97</ele>
        <time>2017-07-11T14:22:37Z</time>
      </trkpt>
      <trkpt lat="49.03249" lon="7.73707">
        <ele>288.53</ele>
        <time>2017-07-11T14:22:48Z</time>
      </trkpt>
      <trkpt lat="49.0324" lon="7.73701">
        <ele>288.05</ele>
        <time>2017-07-11T14:23:05Z</time>
      </trkpt>
      <trkpt lat="49.03228" lon="7.73691">
        <ele>287.09</ele>
        <time>2017-07-11T14:23:18Z</time>
      </trkpt>
      <trkpt lat="49.03215" lon="7.73687">
        <ele>287.09</ele>
        <time>2017-07-11T14:23:27Z</time>
      </trkpt>
      <trkpt lat="49.03202" lon="7.73681">
        <ele>285.65</ele>
        <time>2017-07-11T14:23:38Z</time>
      </trkpt>
      <trkpt lat="49.03191" lon="7.73672">
        <ele>285.65</ele>
        <time>2017-07-11T14:23:46Z</time>
      </trkpt>
      <trkpt lat="49.03181" lon="7.73666">
        <ele>285.65</ele>
        <time>2017-07-11T14:23:54Z</time>
      </trkpt>
      <trkpt lat="49.03174" lon="7.73654">
        <ele>285.17</ele>
        <time>2017-07-11T14:24:03Z</time>
      </trkpt>
      <trkpt lat="49.03159" lon="7.73649">
        <ele>284.69</ele>
        <time>2017-07-11T14:24:12Z</time>
      </trkpt>
      <trkpt lat="49.03151" lon="7.73648">
        <ele>283.73</ele>
        <time>2017-07-11T14:25:01Z</time>
      </trkpt>
      <trkpt lat="49.03141" lon="7.73645">
        <ele>281.32</ele>
        <time>2017-07-11T14:25:12Z</time>
      </trkpt>
      <trkpt lat="49.03129" lon="7.73641">
        <ele>279.88</ele>
        <time>2017-07-11T14:25:25Z</time>
      </trkpt>
      <trkpt lat="49.0312" lon="7.73636">
        <ele>278.92</ele>
        <time>2017-07-11T14:25:34Z</time>
      </trkpt>
      <trkpt lat="49.03107" lon="7.73631">
        <ele>277</ele>
        <time>2017-07-11T14:25:48Z</time>
      </trkpt>
      <trkpt lat="49.03098" lon="7.73619">
        <ele>275.56</ele>
        <time>2017-07-11T14:25:56Z</time>
      </trkpt>
      <trkpt lat="49.03089" lon="7.73604">
        <ele>273.63</ele>
        <time>2017-07-11T14:26:04Z</time>
      </trkpt>
      <trkpt lat="49.03081" lon="7.73595">
        <ele>271.71</ele>
        <time>2017-07-11T14:26:13Z</time>
      </trkpt>
      <trkpt lat="49.0307" lon="7.73583">
        <ele>270.27</ele>
        <time>2017-07-11T14:26:22Z</time>
      </trkpt>
      <trkpt lat="49.03064" lon="7.73568">
        <ele>268.83</ele>
        <time>2017-07-11T14:26:31Z</time>
      </trkpt>
      <trkpt lat="49.03059" lon="7.73556">
        <ele>266.9</ele>
        <time>2017-07-11T14:26:41Z</time>
      </trkpt>
      <trkpt lat="49.03051" lon="7.73541">
        <ele>265.46</ele>
        <time>2017-07-11T14:26:51Z</time>
      </trkpt>
      <trkpt lat="49.03044" lon="7.73525">
        <ele>264.02</ele>
        <time>2017-07-11T14:27:00Z</time>
      </trkpt>
      <trkpt lat="49.03037" lon="7.73507">
        <ele>260.65</ele>
        <time>2017-07-11T14:27:17Z</time>
      </trkpt>
      <trkpt lat="49.03033" lon="7.7348">
        <ele>257.77</ele>
        <time>2017-07-11T14:27:31Z</time>
      </trkpt>
      <trkpt lat="49.0303" lon="7.73454">
        <ele>255.85</ele>
        <time>2017-07-11T14:27:42Z</time>
      </trkpt>
      <trkpt lat="49.03017" lon="7.73423">
        <ele>253.44</ele>
        <time>2017-07-11T14:28:01Z</time>
      </trkpt>
      <trkpt lat="49.03017" lon="7.73406">
        <ele>251.52</ele>
        <time>2017-07-11T14:28:11Z</time>
      </trkpt>
      <trkpt lat="49.0301" lon="7.73388">
        <ele>250.08</ele>
        <time>2017-07-11T14:28:21Z</time>
      </trkpt>
      <trkpt lat="49.03006" lon="7.73367">
        <ele>247.2</ele>
        <time>2017-07-11T14:28:34Z</time>
      </trkpt>
      <trkpt lat="49.03008" lon="7.73354">
        <ele>246.72</ele>
        <time>2017-07-11T14:28:40Z</time>
      </trkpt>
      <trkpt lat="49.03011" lon="7.73339">
        <ele>244.79</ele>
        <time>2017-07-11T14:28:49Z</time>
      </trkpt>
      <trkpt lat="49.03014" lon="7.73323">
        <ele>241.91</ele>
        <time>2017-07-11T14:29:00Z</time>
      </trkpt>
      <trkpt lat="49.03005" lon="7.73311">
        <ele>240.47</ele>
        <time>2017-07-11T14:29:13Z</time>
      </trkpt>
      <trkpt lat="49.02996" lon="7.73312">
        <ele>238.54</ele>
        <time>2017-07-11T14:29:23Z</time>
      </trkpt>
      <trkpt lat="49.02985" lon="7.73314">
        <ele>235.66</ele>
        <time>2017-07-11T14:29:33Z</time>
      </trkpt>
      <trkpt lat="49.02974" lon="7.7332">
        <ele>233.26</ele>
        <time>2017-07-11T14:29:44Z</time>
      </trkpt>
      <trkpt lat="49.02961" lon="7.73329">
        <ele>230.85</ele>
        <time>2017-07-11T14:30:02Z</time>
      </trkpt>
      <trkpt lat="49.02948" lon="7.73332">
        <ele>227.49</ele>
        <time>2017-07-11T14:30:15Z</time>
      </trkpt>
      <trkpt lat="49.02938" lon="7.73331">
        <ele>226.53</ele>
        <time>2017-07-11T14:30:30Z</time>
      </trkpt>
      <trkpt lat="49.0293" lon="7.73337">
        <ele>226.05</ele>
        <time>2017-07-11T14:31:09Z</time>
      </trkpt>
      <trkpt lat="49.02922" lon="7.73347">
        <ele>225.09</ele>
        <time>2017-07-11T14:31:18Z</time>
      </trkpt>
      <trkpt lat="49.02914" lon="7.73364">
        <ele>224.61</ele>
        <time>2017-07-11T14:31:31Z</time>
      </trkpt>
      <trkpt lat="49.02909" lon="7.73378">
        <ele>224.12</ele>
        <time>2017-07-11T14:31:37Z</time>
      </trkpt>
      <trkpt lat="49.02904" lon="7.73391">
        <ele>222.68</ele>
        <time>2017-07-11T14:31:46Z</time>
      </trkpt>
      <trkpt lat="49.02902" lon="7.73404">
        <ele>221.72</ele>
        <time>2017-07-11T14:31:53Z</time>
      </trkpt>
      <trkpt lat="49.029" lon="7.7341">
        <ele>221.24</ele>
        <time>2017-07-11T14:32:39Z</time>
      </trkpt>
      <trkpt lat="49.02898" lon="7.73418">
        <ele>220.76</ele>
        <time>2017-07-11T14:32:54Z</time>
      </trkpt>
      <trkpt lat="49.02892" lon="7.7343">
        <ele>219.8</ele>
        <time>2017-07-11T14:33:30Z</time>
      </trkpt>
      <trkpt lat="49.02887" lon="7.73436">
        <ele>219.32</ele>
        <time>2017-07-11T14:34:07Z</time>
      </trkpt>
      <trkpt lat="49.02879" lon="7.73437">
        <ele>220.28</ele>
        <time>2017-07-11T14:34:28Z</time>
      </trkpt>
      <trkpt lat="49.0287" lon="7.73434">
        <ele>218.84</ele>
        <time>2017-07-11T14:34:36Z</time>
      </trkpt>
      <trkpt lat="49.02862" lon="7.73428">
        <ele>219.32</ele>
        <time>2017-07-11T14:34:46Z</time>
      </trkpt>
      <trkpt lat="49.0286" lon="7.73411">
        <ele>219.8</ele>
        <time>2017-07-11T14:34:58Z</time>
      </trkpt>
      <trkpt lat="49.02857" lon="7.73394">
        <ele>220.76</ele>
        <time>2017-07-11T14:35:07Z</time>
      </trkpt>
      <trkpt lat="49.02854" lon="7.73378">
        <ele>222.68</ele>
        <time>2017-07-11T14:35:18Z</time>
      </trkpt>
      <trkpt lat="49.02852" lon="7.73362">
        <ele>223.64</ele>
        <time>2017-07-11T14:35:27Z</time>
      </trkpt>
      <trkpt lat="49.02849" lon="7.73345">
        <ele>225.09</ele>
        <time>2017-07-11T14:35:37Z</time>
      </trkpt>
      <trkpt lat="49.02846" lon="7.73332">
        <ele>227.01</ele>
        <time>2017-07-11T14:35:48Z</time>
      </trkpt>
      <trkpt lat="49.02848" lon="7.73326">
        <ele>228.93</ele>
        <time>2017-07-11T14:36:14Z</time>
      </trkpt>
      <trkpt lat="49.02845" lon="7.73308">
        <ele>231.81</ele>
        <time>2017-07-11T14:36:31Z</time>
      </trkpt>
      <trkpt lat="49.02846" lon="7.73287">
        <ele>234.22</ele>
        <time>2017-07-11T14:36:48Z</time>
      </trkpt>
      <trkpt lat="49.02849" lon="7.73268">
        <ele>237.1</ele>
        <time>2017-07-11T14:37:07Z</time>
      </trkpt>
      <trkpt lat="49.02852" lon="7.73245">
        <ele>239.51</ele>
        <time>2017-07-11T14:37:25Z</time>
      </trkpt>
      <trkpt lat="49.02853" lon="7.73226">
        <ele>241.43</ele>
        <time>2017-07-11T14:37:39Z</time>
      </trkpt>
      <trkpt lat="49.02851" lon="7.7321">
        <ele>241.91</ele>
        <time>2017-07-11T14:37:48Z</time>
      </trkpt>
      <trkpt lat="49.02848" lon="7.73196">
        <ele>242.87</ele>
        <time>2017-07-11T14:37:59Z</time>
      </trkpt>
      <trkpt lat="49.02844" lon="7.73175">
        <ele>243.83</ele>
        <time>2017-07-11T14:38:12Z</time>
      </trkpt>
      <trkpt lat="49.02844" lon="7.7316">
        <ele>243.35</ele>
        <time>2017-07-11T14:38:20Z</time>
      </trkpt>
      <trkpt lat="49.02848" lon="7.73144">
        <ele>244.31</ele>
        <time>2017-07-11T14:38:32Z</time>
      </trkpt>
      <trkpt lat="49.02848" lon="7.73124">
        <ele>245.27</ele>
        <time>2017-07-11T14:38:41Z</time>
      </trkpt>
      <trkpt lat="49.02853" lon="7.7311">
        <ele>246.23</ele>
        <time>2017-07-11T14:38:51Z</time>
      </trkpt>
      <trkpt lat="49.0286" lon="7.73099">
        <ele>247.2</ele>
        <time>2017-07-11T14:39:02Z</time>
      </trkpt>
      <trkpt lat="49.02866" lon="7.73086">
        <ele>248.64</ele>
        <time>2017-07-11T14:39:14Z</time>
      </trkpt>
      <trkpt lat="49.02872" lon="7.73077">
        <ele>250.08</ele>
        <time>2017-07-11T14:39:24Z</time>
      </trkpt>
      <trkpt lat="49.02876" lon="7.73064">
        <ele>251.52</ele>
        <time>2017-07-11T14:39:34Z</time>
      </trkpt>
      <trkpt lat="49.02879" lon="7.7305">
        <ele>252</ele>
        <time>2017-07-11T14:39:43Z</time>
      </trkpt>
      <trkpt lat="49.0288" lon="7.73034">
        <ele>252</ele>
        <time>2017-07-11T14:39:54Z</time>
      </trkpt>
      <trkpt lat="49.0288" lon="7.7302">
        <ele>251.52</ele>
        <time>2017-07-11T14:40:03Z</time>
      </trkpt>
      <trkpt lat="49.02882" lon="7.73007">
        <ele>252</ele>
        <time>2017-07-11T14:40:12Z</time>
      </trkpt>
      <trkpt lat="49.02882" lon="7.72993">
        <ele>252</ele>
        <time>2017-07-11T14:40:21Z</time>
      </trkpt>
      <trkpt lat="49.02881" lon="7.72978">
        <ele>252.48</ele>
        <time>2017-07-11T14:40:30Z</time>
      </trkpt>
      <trkpt lat="49.0288" lon="7.72961">
        <ele>252.48</ele>
        <time>2017-07-11T14:40:38Z</time>
      </trkpt>
      <trkpt lat="49.02879" lon="7.72946">
        <ele>252.48</ele>
        <time>2017-07-11T14:40:47Z</time>
      </trkpt>
      <trkpt lat="49.02878" lon="7.72932">
        <ele>252</ele>
        <time>2017-07-11T14:40:57Z</time>
      </trkpt>
      <trkpt lat="49.02878" lon="7.72917">
        <ele>252</ele>
        <time>2017-07-11T14:41:05Z</time>
      </trkpt>
      <trkpt lat="49.02878" lon="7.729">
        <ele>252</ele>
        <time>2017-07-11T14:41:14Z</time>
      </trkpt>
      <trkpt lat="49.02878" lon="7.72887">
        <ele>252</ele>
        <time>2017-07-11T14:41:23Z</time>
      </trkpt>
      <trkpt lat="49.02878" lon="7.72872">
        <ele>252</ele>
        <time>2017-07-11T14:41:31Z</time>
      </trkpt>
      <trkpt lat="49.02878" lon="7.72856">
        <ele>252</ele>
        <time>2017-07-11T14:41:40Z</time>
      </trkpt>
      <trkpt lat="49.02877" lon="7.7284">
        <ele>251.52</ele>
        <time>2017-07-11T14:41:49Z</time>
      </trkpt>
      <trkpt lat="49.02877" lon="7.72825">
        <ele>251.52</ele>
        <time>2017-07-11T14:41:56Z</time>
      </trkpt>
      <trkpt lat="49.02878" lon="7.72811">
        <ele>251.52</ele>
        <time>2017-07-11T14:42:05Z</time>
      </trkpt>
      <trkpt lat="49.0288" lon="7.72797">
        <ele>251.04</ele>
        <time>2017-07-11T14:42:13Z</time>
      </trkpt>
      <trkpt lat="49.02881" lon="7.72782">
        <ele>251.04</ele>
        <time>2017-07-11T14:42:22Z</time>
      </trkpt>
      <trkpt lat="49.02882" lon="7.72767">
        <ele>251.04</ele>
        <time>2017-07-11T14:42:29Z</time>
      </trkpt>
      <trkpt lat="49.02884" lon="7.72753">
        <ele>250.56</ele>
        <time>2017-07-11T14:42:38Z</time>
      </trkpt>
      <trkpt lat="49.02884" lon="7.72738">
        <ele>250.56</ele>
        <time>2017-07-11T14:42:46Z</time>
      </trkpt>
      <trkpt lat="49.02884" lon="7.72724">
        <ele>251.04</ele>
        <time>2017-07-11T14:42:54Z</time>
      </trkpt>
      <trkpt lat="49.02883" lon="7.72708">
        <ele>251.52</ele>
        <time>2017-07-11T14:43:04Z</time>
      </trkpt>
      <trkpt lat="49.02881" lon="7.72693">
        <ele>251.04</ele>
        <time>2017-07-11T14:43:14Z</time>
      </trkpt>
      <trkpt lat="49.02882" lon="7.72678">
        <ele>250.56</ele>
        <time>2017-07-11T14:43:22Z</time>
      </trkpt>
      <trkpt lat="49.02881" lon="7.72661">
        <ele>252</ele>
        <time>2017-07-11T14:43:33Z</time>
      </trkpt>
      <trkpt lat="49.02876" lon="7.72646">
        <ele>252</ele>
        <time>2017-07-11T14:43:43Z</time>
      </trkpt>
      <trkpt lat="49.02872" lon="7.72624">
        <ele>253.44</ele>
        <time>2017-07-11T14:43:56Z</time>
      </trkpt>
      <trkpt lat="49.02868" lon="7.72602">
        <ele>254.41</ele>
        <time>2017-07-11T14:44:10Z</time>
      </trkpt>
      <trkpt lat="49.02863" lon="7.72577">
        <ele>255.85</ele>
        <time>2017-07-11T14:44:25Z</time>
      </trkpt>
      <trkpt lat="49.0286" lon="7.72562">
        <ele>255.85</ele>
        <time>2017-07-11T14:44:33Z</time>
      </trkpt>
      <trkpt lat="49.02856" lon="7.72549">
        <ele>255.37</ele>
        <time>2017-07-11T14:44:43Z</time>
      </trkpt>
      <trkpt lat="49.02855" lon="7.72525">
        <ele>254.41</ele>
        <time>2017-07-11T14:44:58Z</time>
      </trkpt>
      <trkpt lat="49.02856" lon="7.72502">
        <ele>253.44</ele>
        <time>2017-07-11T14:45:11Z</time>
      </trkpt>
      <trkpt lat="49.02855" lon="7.72482">
        <ele>252.48</ele>
        <time>2017-07-11T14:45:24Z</time>
      </trkpt>
      <trkpt lat="49.02856" lon="7.72454">
        <ele>251.52</ele>
        <time>2017-07-11T14:45:37Z</time>
      </trkpt>
      <trkpt lat="49.02858" lon="7.72433">
        <ele>251.04</ele>
        <time>2017-07-11T14:45:48Z</time>
      </trkpt>
      <trkpt lat="49.02863" lon="7.72407">
        <ele>249.12</ele>
        <time>2017-07-11T14:46:00Z</time>
      </trkpt>
      <trkpt lat="49.02867" lon="7.72388">
        <ele>248.16</ele>
        <time>2017-07-11T14:46:10Z</time>
      </trkpt>
      <trkpt lat="49.0287" lon="7.72371">
        <ele>247.2</ele>
        <time>2017-07-11T14:46:21Z</time>
      </trkpt>
      <trkpt lat="49.02876" lon="7.7235">
        <ele>245.75</ele>
        <time>2017-07-11T14:46:33Z</time>
      </trkpt>
      <trkpt lat="49.0288" lon="7.72335">
        <ele>244.79</ele>
        <time>2017-07-11T14:46:40Z</time>
      </trkpt>
      <trkpt lat="49.02888" lon="7.72321">
        <ele>243.35</ele>
        <time>2017-07-11T14:46:52Z</time>
      </trkpt>
      <trkpt lat="49.02896" lon="7.72306">
        <ele>241.91</ele>
        <time>2017-07-11T14:47:04Z</time>
      </trkpt>
      <trkpt lat="49.02906" lon="7.72286">
        <ele>240.95</ele>
        <time>2017-07-11T14:47:20Z</time>
      </trkpt>
      <trkpt lat="49.02909" lon="7.72247">
        <ele>239.51</ele>
        <time>2017-07-11T14:47:38Z</time>
      </trkpt>
      <trkpt lat="49.02921" lon="7.72227">
        <ele>238.06</ele>
        <time>2017-07-11T14:47:53Z</time>
      </trkpt>
      <trkpt lat="49.0293" lon="7.72213">
        <ele>235.66</ele>
        <time>2017-07-11T14:48:06Z</time>
      </trkpt>
      <trkpt lat="49.02938" lon="7.72193">
        <ele>233.26</ele>
        <time>2017-07-11T14:48:19Z</time>
      </trkpt>
      <trkpt lat="49.02942" lon="7.72168">
        <ele>231.81</ele>
        <time>2017-07-11T14:48:31Z</time>
      </trkpt>
      <trkpt lat="49.02944" lon="7.72145">
        <ele>229.89</ele>
        <time>2017-07-11T14:48:43Z</time>
      </trkpt>
      <trkpt lat="49.02947" lon="7.72131">
        <ele>228.45</ele>
        <time>2017-07-11T14:48:54Z</time>
      </trkpt>
      <trkpt lat="49.02952" lon="7.72115">
        <ele>226.53</ele>
        <time>2017-07-11T14:49:05Z</time>
      </trkpt>
      <trkpt lat="49.02955" lon="7.72095">
        <ele>226.05</ele>
        <time>2017-07-11T14:49:16Z</time>
      </trkpt>
      <trkpt lat="49.02959" lon="7.72079">
        <ele>225.57</ele>
        <time>2017-07-11T14:49:25Z</time>
      </trkpt>
      <trkpt lat="49.02964" lon="7.72064">
        <ele>225.57</ele>
        <time>2017-07-11T14:49:35Z</time>
      </trkpt>
      <trkpt lat="49.02969" lon="7.72048">
        <ele>225.57</ele>
        <time>2017-07-11T14:49:46Z</time>
      </trkpt>
      <trkpt lat="49.02972" lon="7.72029">
        <ele>225.57</ele>
        <time>2017-07-11T14:49:57Z</time>
      </trkpt>
      <trkpt lat="49.02971" lon="7.72015">
        <ele>226.05</ele>
        <time>2017-07-11T14:50:42Z</time>
      </trkpt>
      <trkpt lat="49.02971" lon="7.71999">
        <ele>225.09</ele>
        <time>2017-07-11T14:50:49Z</time>
      </trkpt>
      <trkpt lat="49.0297" lon="7.71982">
        <ele>225.57</ele>
        <time>2017-07-11T14:50:58Z</time>
      </trkpt>
      <trkpt lat="49.0297" lon="7.71967">
        <ele>225.57</ele>
        <time>2017-07-11T14:51:04Z</time>
      </trkpt>
      <trkpt lat="49.0297" lon="7.71952">
        <ele>225.57</ele>
        <time>2017-07-11T14:51:11Z</time>
      </trkpt>
      <trkpt lat="49.02969" lon="7.71937">
        <ele>226.05</ele>
        <time>2017-07-11T14:51:19Z</time>
      </trkpt>
      <trkpt lat="49.02971" lon="7.71921">
        <ele>226.05</ele>
        <time>2017-07-11T14:51:29Z</time>
      </trkpt>
      <trkpt lat="49.02974" lon="7.71901">
        <ele>225.57</ele>
        <time>2017-07-11T14:51:40Z</time>
      </trkpt>
      <trkpt lat="49.02975" lon="7.71879">
        <ele>226.05</ele>
        <time>2017-07-11T14:51:52Z</time>
      </trkpt>
      <trkpt lat="49.02974" lon="7.71857">
        <ele>227.01</ele>
        <time>2017-07-11T14:52:01Z</time>
      </trkpt>
      <trkpt lat="49.02973" lon="7.71838">
        <ele>227.01</ele>
        <time>2017-07-11T14:52:11Z</time>
      </trkpt>
      <trkpt lat="49.02974" lon="7.71822">
        <ele>227.49</ele>
        <time>2017-07-11T14:52:19Z</time>
      </trkpt>
      <trkpt lat="49.02973" lon="7.71806">
        <ele>227.49</ele>
        <time>2017-07-11T14:52:26Z</time>
      </trkpt>
      <trkpt lat="49.02973" lon="7.71792">
        <ele>227.49</ele>
        <time>2017-07-11T14:52:34Z</time>
      </trkpt>
      <trkpt lat="49.02973" lon="7.71778">
        <ele>227.49</ele>
        <time>2017-07-11T14:52:42Z</time>
      </trkpt>
      <trkpt lat="49.02973" lon="7.71763">
        <ele>227.97</ele>
        <time>2017-07-11T14:52:50Z</time>
      </trkpt>
      <trkpt lat="49.02973" lon="7.71747">
        <ele>227.97</ele>
        <time>2017-07-11T14:52:58Z</time>
      </trkpt>
      <trkpt lat="49.02971" lon="7.71733">
        <ele>227.97</ele>
        <time>2017-07-11T14:53:05Z</time>
      </trkpt>
      <trkpt lat="49.02969" lon="7.71718">
        <ele>227.49</ele>
        <time>2017-07-11T14:53:13Z</time>
      </trkpt>
      <trkpt lat="49.02968" lon="7.71703">
        <ele>227.49</ele>
        <time>2017-07-11T14:53:21Z</time>
      </trkpt>
      <trkpt lat="49.02966" lon="7.71687">
        <ele>226.53</ele>
        <time>2017-07-11T14:53:29Z</time>
      </trkpt>
      <trkpt lat="49.02963" lon="7.71671">
        <ele>226.53</ele>
        <time>2017-07-11T14:53:38Z</time>
      </trkpt>
      <trkpt lat="49.02959" lon="7.71657">
        <ele>227.01</ele>
        <time>2017-07-11T14:53:47Z</time>
      </trkpt>
      <trkpt lat="49.02958" lon="7.71641">
        <ele>227.01</ele>
        <time>2017-07-11T14:53:55Z</time>
      </trkpt>
      <trkpt lat="49.02956" lon="7.71624">
        <ele>227.01</ele>
        <time>2017-07-11T14:54:03Z</time>
      </trkpt>
      <trkpt lat="49.02955" lon="7.71609">
        <ele>227.01</ele>
        <time>2017-07-11T14:54:11Z</time>
      </trkpt>
      <trkpt lat="49.02954" lon="7.71595">
        <ele>227.49</ele>
        <time>2017-07-11T14:54:32Z</time>
      </trkpt>
      <trkpt lat="49.02952" lon="7.7158">
        <ele>227.01</ele>
        <time>2017-07-11T14:54:40Z</time>
      </trkpt>
      <trkpt lat="49.02951" lon="7.71563">
        <ele>227.01</ele>
        <time>2017-07-11T14:54:48Z</time>
      </trkpt>
      <trkpt lat="49.02949" lon="7.7155">
        <ele>227.01</ele>
        <time>2017-07-11T14:54:55Z</time>
      </trkpt>
      <trkpt lat="49.02949" lon="7.71536">
        <ele>227.49</ele>
        <time>2017-07-11T14:55:04Z</time>
      </trkpt>
      <trkpt lat="49.02948" lon="7.71521">
        <ele>227.49</ele>
        <time>2017-07-11T14:55:12Z</time>
      </trkpt>
      <trkpt lat="49.02948" lon="7.71507">
        <ele>227.97</ele>
        <time>2017-07-11T14:55:19Z</time>
      </trkpt>
      <trkpt lat="49.02947" lon="7.71491">
        <ele>227.97</ele>
        <time>2017-07-11T14:55:27Z</time>
      </trkpt>
      <trkpt lat="49.02948" lon="7.71477">
        <ele>227.49</ele>
        <time>2017-07-11T14:55:35Z</time>
      </trkpt>
      <trkpt lat="49.02951" lon="7.71464">
        <ele>227.49</ele>
        <time>2017-07-11T14:55:42Z</time>
      </trkpt>
      <trkpt lat="49.02951" lon="7.71447">
        <ele>227.49</ele>
        <time>2017-07-11T14:55:50Z</time>
      </trkpt>
      <trkpt lat="49.02954" lon="7.71432">
        <ele>227.49</ele>
        <time>2017-07-11T14:55:57Z</time>
      </trkpt>
      <trkpt lat="49.02956" lon="7.71419">
        <ele>227.01</ele>
        <time>2017-07-11T14:56:05Z</time>
      </trkpt>
      <trkpt lat="49.02961" lon="7.71405">
        <ele>227.01</ele>
        <time>2017-07-11T14:56:12Z</time>
      </trkpt>
      <trkpt lat="49.02963" lon="7.7139">
        <ele>226.53</ele>
        <time>2017-07-11T14:56:23Z</time>
      </trkpt>
      <trkpt lat="49.02964" lon="7.71375">
        <ele>226.53</ele>
        <time>2017-07-11T14:56:32Z</time>
      </trkpt>
      <trkpt lat="49.02967" lon="7.71361">
        <ele>226.53</ele>
        <time>2017-07-11T14:57:18Z</time>
      </trkpt>
      <trkpt lat="49.02969" lon="7.71345">
        <ele>227.01</ele>
        <time>2017-07-11T14:57:26Z</time>
      </trkpt>
      <trkpt lat="49.02971" lon="7.7133">
        <ele>226.53</ele>
        <time>2017-07-11T14:57:35Z</time>
      </trkpt>
      <trkpt lat="49.02976" lon="7.71315">
        <ele>227.01</ele>
        <time>2017-07-11T14:57:43Z</time>
      </trkpt>
      <trkpt lat="49.02981" lon="7.71297">
        <ele>226.53</ele>
        <time>2017-07-11T14:57:52Z</time>
      </trkpt>
      <trkpt lat="49.02986" lon="7.71283">
        <ele>227.01</ele>
        <time>2017-07-11T14:58:00Z</time>
      </trkpt>
      <trkpt lat="49.02991" lon="7.7127">
        <ele>227.01</ele>
        <time>2017-07-11T14:58:07Z</time>
      </trkpt>
      <trkpt lat="49.02996" lon="7.71257">
        <ele>227.49</ele>
        <time>2017-07-11T14:58:15Z</time>
      </trkpt>
      <trkpt lat="49.03002" lon="7.71244">
        <ele>227.49</ele>
        <time>2017-07-11T14:58:24Z</time>
      </trkpt>
      <trkpt lat="49.03006" lon="7.71229">
        <ele>227.49</ele>
        <time>2017-07-11T14:58:31Z</time>
      </trkpt>
      <trkpt lat="49.03011" lon="7.71215">
        <ele>227.49</ele>
        <time>2017-07-11T14:58:39Z</time>
      </trkpt>
      <trkpt lat="49.03012" lon="7.71199">
        <ele>227.01</ele>
        <time>2017-07-11T14:58:46Z</time>
      </trkpt>
      <trkpt lat="49.03014" lon="7.71185">
        <ele>227.01</ele>
        <time>2017-07-11T14:58:53Z</time>
      </trkpt>
      <trkpt lat="49.0302" lon="7.71174">
        <ele>227.49</ele>
        <time>2017-07-11T14:59:01Z</time>
      </trkpt>
      <trkpt lat="49.03024" lon="7.7116">
        <ele>227.49</ele>
        <time>2017-07-11T14:59:10Z</time>
      </trkpt>
      <trkpt lat="49.03028" lon="7.7115">
        <ele>227.49</ele>
        <time>2017-07-11T14:59:30Z</time>
      </trkpt>
      <trkpt lat="49.03033" lon="7.71137">
        <ele>227.49</ele>
        <time>2017-07-11T14:59:42Z</time>
      </trkpt>
      <trkpt lat="49.0304" lon="7.71125">
        <ele>227.97</ele>
        <time>2017-07-11T14:59:50Z</time>
      </trkpt>
      <trkpt lat="49.03048" lon="7.71116">
        <ele>227.97</ele>
        <time>2017-07-11T15:00:09Z</time>
      </trkpt>
      <trkpt lat="49.03055" lon="7.71106">
        <ele>228.45</ele>
        <time>2017-07-11T15:00:16Z</time>
      </trkpt>
      <trkpt lat="49.03059" lon="7.71106">
        <ele>228.45</ele>
        <time>2017-07-11T15:00:25Z</time>
      </trkpt>
      <trkpt lat="49.03069" lon="7.71093">
        <ele>228.93</ele>
        <time>2017-07-11T15:00:32Z</time>
      </trkpt>
      <trkpt lat="49.03078" lon="7.71086">
        <ele>229.41</ele>
        <time>2017-07-11T15:00:40Z</time>
      </trkpt>
      <trkpt lat="49.03089" lon="7.71079">
        <ele>228.45</ele>
        <time>2017-07-11T15:00:50Z</time>
      </trkpt>
      <trkpt lat="49.03099" lon="7.71076">
        <ele>228.93</ele>
        <time>2017-07-11T15:00:58Z</time>
      </trkpt>
      <trkpt lat="49.03108" lon="7.71073">
        <ele>229.41</ele>
        <time>2017-07-11T15:01:05Z</time>
      </trkpt>
      <trkpt lat="49.03118" lon="7.7107">
        <ele>229.41</ele>
        <time>2017-07-11T15:01:15Z</time>
      </trkpt>
      <trkpt lat="49.03128" lon="7.71068">
        <ele>229.89</ele>
        <time>2017-07-11T15:01:23Z</time>
      </trkpt>
      <trkpt lat="49.03137" lon="7.71064">
        <ele>229.89</ele>
        <time>2017-07-11T15:01:30Z</time>
      </trkpt>
      <trkpt lat="49.03146" lon="7.71062">
        <ele>229.89</ele>
        <time>2017-07-11T15:01:38Z</time>
      </trkpt>
      <trkpt lat="49.03157" lon="7.71054">
        <ele>229.89</ele>
        <time>2017-07-11T15:01:46Z</time>
      </trkpt>
      <trkpt lat="49.03166" lon="7.71048">
        <ele>229.89</ele>
        <time>2017-07-11T15:01:54Z</time>
      </trkpt>
      <trkpt lat="49.03174" lon="7.71043">
        <ele>231.33</ele>
        <time>2017-07-11T15:02:03Z</time>
      </trkpt>
      <trkpt lat="49.03184" lon="7.71035">
        <ele>230.85</ele>
        <time>2017-07-11T15:02:13Z</time>
      </trkpt>
      <trkpt lat="49.03192" lon="7.71026">
        <ele>230.85</ele>
        <time>2017-07-11T15:02:21Z</time>
      </trkpt>
      <trkpt lat="49.03198" lon="7.71016">
        <ele>231.33</ele>
        <time>2017-07-11T15:02:27Z</time>
      </trkpt>
      <trkpt lat="49.03205" lon="7.71004">
        <ele>231.33</ele>
        <time>2017-07-11T15:02:34Z</time>
      </trkpt>
      <trkpt lat="49.03211" lon="7.70991">
        <ele>230.85</ele>
        <time>2017-07-11T15:02:42Z</time>
      </trkpt>
      <trkpt lat="49.03218" lon="7.70975">
        <ele>231.33</ele>
        <time>2017-07-11T15:02:51Z</time>
      </trkpt>
      <trkpt lat="49.03224" lon="7.70963">
        <ele>231.33</ele>
        <time>2017-07-11T15:02:59Z</time>
      </trkpt>
      <trkpt lat="49.0323" lon="7.7095">
        <ele>230.85</ele>
        <time>2017-07-11T15:03:06Z</time>
      </trkpt>
      <trkpt lat="49.03235" lon="7.70938">
        <ele>231.33</ele>
        <time>2017-07-11T15:03:13Z</time>
      </trkpt>
      <trkpt lat="49.0324" lon="7.70921">
        <ele>231.33</ele>
        <time>2017-07-11T15:03:22Z</time>
      </trkpt>
      <trkpt lat="49.03246" lon="7.70907">
        <ele>230.85</ele>
        <time>2017-07-11T15:03:29Z</time>
      </trkpt>
      <trkpt lat="49.03253" lon="7.70895">
        <ele>231.33</ele>
        <time>2017-07-11T15:03:37Z</time>
      </trkpt>
      <trkpt lat="49.03256" lon="7.70881">
        <ele>231.33</ele>
        <time>2017-07-11T15:03:45Z</time>
      </trkpt>
      <trkpt lat="49.03261" lon="7.70867">
        <ele>231.81</ele>
        <time>2017-07-11T15:03:53Z</time>
      </trkpt>
      <trkpt lat="49.03266" lon="7.70853">
        <ele>231.81</ele>
        <time>2017-07-11T15:04:02Z</time>
      </trkpt>
      <trkpt lat="49.03268" lon="7.70841">
        <ele>231.81</ele>
        <time>2017-07-11T15:04:26Z</time>
      </trkpt>
      <trkpt lat="49.0327" lon="7.70823">
        <ele>231.81</ele>
        <time>2017-07-11T15:04:34Z</time>
      </trkpt>
      <trkpt lat="49.0327" lon="7.70808">
        <ele>231.81</ele>
        <time>2017-07-11T15:04:42Z</time>
      </trkpt>
      <trkpt lat="49.03268" lon="7.70793">
        <ele>232.3</ele>
        <time>2017-07-11T15:04:52Z</time>
      </trkpt>
      <trkpt lat="49.03262" lon="7.7078">
        <ele>231.81</ele>
        <time>2017-07-11T15:05:00Z</time>
      </trkpt>
      <trkpt lat="49.03254" lon="7.70772">
        <ele>232.3</ele>
        <time>2017-07-11T15:05:07Z</time>
      </trkpt>
      <trkpt lat="49.03251" lon="7.70759">
        <ele>232.3</ele>
        <time>2017-07-11T15:05:15Z</time>
      </trkpt>
      <trkpt lat="49.0325" lon="7.70746">
        <ele>231.81</ele>
        <time>2017-07-11T15:05:23Z</time>
      </trkpt>
      <trkpt lat="49.03249" lon="7.70732">
        <ele>231.81</ele>
        <time>2017-07-11T15:05:32Z</time>
      </trkpt>
      <trkpt lat="49.03246" lon="7.70725">
        <ele>231.33</ele>
        <time>2017-07-11T15:06:50Z</time>
      </trkpt>
      <trkpt lat="49.03237" lon="7.70712">
        <ele>231.81</ele>
        <time>2017-07-11T15:06:59Z</time>
      </trkpt>
      <trkpt lat="49.03232" lon="7.70701">
        <ele>233.26</ele>
        <time>2017-07-11T15:07:30Z</time>
      </trkpt>
      <trkpt lat="49.03227" lon="7.70686">
        <ele>236.14</ele>
        <time>2017-07-11T15:07:44Z</time>
      </trkpt>
      <trkpt lat="49.03232" lon="7.70661">
        <ele>239.02</ele>
        <time>2017-07-11T15:08:03Z</time>
      </trkpt>
      <trkpt lat="49.03235" lon="7.70646">
        <ele>238.54</ele>
        <time>2017-07-11T15:08:12Z</time>
      </trkpt>
      <trkpt lat="49.03237" lon="7.70619">
        <ele>238.54</ele>
        <time>2017-07-11T15:08:27Z</time>
      </trkpt>
      <trkpt lat="49.03243" lon="7.70605">
        <ele>238.54</ele>
        <time>2017-07-11T15:10:19Z</time>
      </trkpt>
      <trkpt lat="49.03249" lon="7.70592">
        <ele>239.02</ele>
        <time>2017-07-11T15:10:30Z</time>
      </trkpt>
      <trkpt lat="49.03255" lon="7.70573">
        <ele>239.02</ele>
        <time>2017-07-11T15:10:45Z</time>
      </trkpt>
      <trkpt lat="49.03269" lon="7.70535">
        <ele>239.02</ele>
        <time>2017-07-11T15:11:01Z</time>
      </trkpt>
      <trkpt lat="49.03281" lon="7.70525">
        <ele>238.54</ele>
        <time>2017-07-11T15:11:14Z</time>
      </trkpt>
      <trkpt lat="49.0329" lon="7.70516">
        <ele>238.54</ele>
        <time>2017-07-11T15:11:23Z</time>
      </trkpt>
      <trkpt lat="49.03293" lon="7.70497">
        <ele>238.54</ele>
        <time>2017-07-11T15:11:35Z</time>
      </trkpt>
      <trkpt lat="49.03293" lon="7.70516">
        <ele>239.02</ele>
        <time>2017-07-11T15:12:00Z</time>
      </trkpt>
      <trkpt lat="49.03297" lon="7.70482">
        <ele>238.06</ele>
        <time>2017-07-11T15:12:24Z</time>
      </trkpt>
      <trkpt lat="49.03309" lon="7.70456">
        <ele>238.54</ele>
        <time>2017-07-11T15:12:36Z</time>
      </trkpt>
      <trkpt lat="49.03317" lon="7.70436">
        <ele>238.54</ele>
        <time>2017-07-11T15:12:45Z</time>
      </trkpt>
      <trkpt lat="49.03331" lon="7.70421">
        <ele>239.51</ele>
        <time>2017-07-11T15:12:57Z</time>
      </trkpt>
      <trkpt lat="49.03338" lon="7.70402">
        <ele>239.99</ele>
        <time>2017-07-11T15:13:09Z</time>
      </trkpt>
      <trkpt lat="49.03341" lon="7.70377">
        <ele>239.99</ele>
        <time>2017-07-11T15:13:18Z</time>
      </trkpt>
      <trkpt lat="49.03343" lon="7.70358">
        <ele>239.99</ele>
        <time>2017-07-11T15:13:27Z</time>
      </trkpt>
      <trkpt lat="49.03345" lon="7.70331">
        <ele>239.51</ele>
        <time>2017-07-11T15:13:43Z</time>
      </trkpt>
      <trkpt lat="49.03349" lon="7.70308">
        <ele>239.99</ele>
        <time>2017-07-11T15:14:00Z</time>
      </trkpt>
      <trkpt lat="49.03353" lon="7.7027">
        <ele>239.51</ele>
        <time>2017-07-11T15:14:17Z</time>
      </trkpt>
      <trkpt lat="49.03348" lon="7.70222">
        <ele>239.51</ele>
        <time>2017-07-11T15:14:35Z</time>
      </trkpt>
      <trkpt lat="49.03346" lon="7.70192">
        <ele>238.54</ele>
        <time>2017-07-11T15:14:52Z</time>
      </trkpt>
      <trkpt lat="49.03347" lon="7.70166">
        <ele>239.02</ele>
        <time>2017-07-11T15:15:04Z</time>
      </trkpt>
      <trkpt lat="49.03342" lon="7.70138">
        <ele>238.54</ele>
        <time>2017-07-11T15:15:17Z</time>
      </trkpt>
      <trkpt lat="49.03335" lon="7.70096">
        <ele>237.58</ele>
        <time>2017-07-11T15:15:41Z</time>
      </trkpt>
      <trkpt lat="49.03342" lon="7.70057">
        <ele>238.06</ele>
        <time>2017-07-11T15:15:54Z</time>
      </trkpt>
      <trkpt lat="49.03347" lon="7.7004">
        <ele>238.06</ele>
        <time>2017-07-11T15:16:05Z</time>
      </trkpt>
      <trkpt lat="49.03351" lon="7.70028">
        <ele>237.58</ele>
        <time>2017-07-11T15:16:17Z</time>
      </trkpt>
      <trkpt lat="49.03357" lon="7.70015">
        <ele>236.62</ele>
        <time>2017-07-11T15:16:26Z</time>
      </trkpt>
      <trkpt lat="49.03361" lon="7.69997">
        <ele>236.14</ele>
        <time>2017-07-11T15:16:34Z</time>
      </trkpt>
      <trkpt lat="49.03366" lon="7.69985">
        <ele>234.7</ele>
        <time>2017-07-11T15:16:41Z</time>
      </trkpt>
      <trkpt lat="49.0338" lon="7.69971">
        <ele>234.22</ele>
        <time>2017-07-11T15:16:49Z</time>
      </trkpt>
      <trkpt lat="49.03388" lon="7.69954">
        <ele>234.22</ele>
        <time>2017-07-11T15:16:58Z</time>
      </trkpt>
      <trkpt lat="49.03394" lon="7.69935">
        <ele>233.74</ele>
        <time>2017-07-11T15:17:05Z</time>
      </trkpt>
      <trkpt lat="49.0339" lon="7.69918">
        <ele>234.22</ele>
        <time>2017-07-11T15:17:24Z</time>
      </trkpt>
      <trkpt lat="49.03393" lon="7.69903">
        <ele>234.22</ele>
        <time>2017-07-11T15:17:30Z</time>
      </trkpt>
      <trkpt lat="49.03399" lon="7.69889">
        <ele>234.22</ele>
        <time>2017-07-11T15:17:37Z</time>
      </trkpt>
      <trkpt lat="49.03402" lon="7.69872">
        <ele>234.22</ele>
        <time>2017-07-11T15:17:45Z</time>
      </trkpt>
      <trkpt lat="49.03405" lon="7.69858">
        <ele>234.22</ele>
        <time>2017-07-11T15:17:53Z</time>
      </trkpt>
      <trkpt lat="49.03404" lon="7.69842">
        <ele>234.22</ele>
        <time>2017-07-11T15:18:02Z</time>
      </trkpt>
      <trkpt lat="49.03408" lon="7.69825">
        <ele>235.18</ele>
        <time>2017-07-11T15:18:10Z</time>
      </trkpt>
      <trkpt lat="49.03414" lon="7.6981">
        <ele>234.7</ele>
        <time>2017-07-11T15:18:18Z</time>
      </trkpt>
      <trkpt lat="49.03416" lon="7.69791">
        <ele>235.18</ele>
        <time>2017-07-11T15:18:27Z</time>
      </trkpt>
      <trkpt lat="49.0342" lon="7.69774">
        <ele>235.18</ele>
        <time>2017-07-11T15:18:37Z</time>
      </trkpt>
      <trkpt lat="49.03422" lon="7.69756">
        <ele>234.7</ele>
        <time>2017-07-11T15:18:47Z</time>
      </trkpt>
      <trkpt lat="49.03425" lon="7.69739">
        <ele>235.66</ele>
        <time>2017-07-11T15:18:56Z</time>
      </trkpt>
      <trkpt lat="49.03425" lon="7.69725">
        <ele>235.66</ele>
        <time>2017-07-11T15:19:08Z</time>
      </trkpt>
      <trkpt lat="49.03429" lon="7.69709">
        <ele>236.14</ele>
        <time>2017-07-11T15:19:18Z</time>
      </trkpt>
      <trkpt lat="49.03428" lon="7.69691">
        <ele>235.66</ele>
        <time>2017-07-11T15:19:29Z</time>
      </trkpt>
      <trkpt lat="49.03435" lon="7.69677">
        <ele>236.14</ele>
        <time>2017-07-11T15:19:39Z</time>
      </trkpt>
      <trkpt lat="49.03434" lon="7.69659">
        <ele>236.62</ele>
        <time>2017-07-11T15:19:50Z</time>
      </trkpt>
      <trkpt lat="49.03436" lon="7.69638">
        <ele>237.1</ele>
        <time>2017-07-11T15:20:02Z</time>
      </trkpt>
      <trkpt lat="49.03437" lon="7.69613">
        <ele>237.58</ele>
        <time>2017-07-11T15:20:11Z</time>
      </trkpt>
      <trkpt lat="49.03439" lon="7.69599">
        <ele>237.1</ele>
        <time>2017-07-11T15:20:17Z</time>
      </trkpt>
      <trkpt lat="49.03441" lon="7.69587">
        <ele>237.1</ele>
        <time>2017-07-11T15:20:25Z</time>
      </trkpt>
      <trkpt lat="49.03444" lon="7.69574">
        <ele>237.58</ele>
        <time>2017-07-11T15:20:32Z</time>
      </trkpt>
      <trkpt lat="49.03446" lon="7.69561">
        <ele>237.58</ele>
        <time>2017-07-11T15:20:42Z</time>
      </trkpt>
      <trkpt lat="49.0345" lon="7.69547">
        <ele>237.58</ele>
        <time>2017-07-11T15:20:51Z</time>
      </trkpt>
      <trkpt lat="49.03454" lon="7.69532">
        <ele>237.58</ele>
        <time>2017-07-11T15:20:58Z</time>
      </trkpt>
      <trkpt lat="49.03459" lon="7.69516">
        <ele>238.54</ele>
        <time>2017-07-11T15:21:06Z</time>
      </trkpt>
      <trkpt lat="49.03465" lon="7.69504">
        <ele>237.58</ele>
        <time>2017-07-11T15:21:13Z</time>
      </trkpt>
      <trkpt lat="49.03465" lon="7.6949">
        <ele>238.54</ele>
        <time>2017-07-11T15:21:21Z</time>
      </trkpt>
      <trkpt lat="49.03467" lon="7.69475">
        <ele>238.54</ele>
        <time>2017-07-11T15:21:32Z</time>
      </trkpt>
      <trkpt lat="49.0347" lon="7.69459">
        <ele>238.54</ele>
        <time>2017-07-11T15:21:42Z</time>
      </trkpt>
      <trkpt lat="49.03473" lon="7.69443">
        <ele>239.02</ele>
        <time>2017-07-11T15:21:50Z</time>
      </trkpt>
      <trkpt lat="49.03475" lon="7.69427">
        <ele>239.51</ele>
        <time>2017-07-11T15:21:59Z</time>
      </trkpt>
      <trkpt lat="49.03477" lon="7.6941">
        <ele>239.02</ele>
        <time>2017-07-11T15:22:08Z</time>
      </trkpt>
      <trkpt lat="49.03478" lon="7.69394">
        <ele>239.02</ele>
        <time>2017-07-11T15:22:15Z</time>
      </trkpt>
      <trkpt lat="49.03481" lon="7.69379">
        <ele>239.51</ele>
        <time>2017-07-11T15:22:23Z</time>
      </trkpt>
      <trkpt lat="49.0348" lon="7.69364">
        <ele>239.99</ele>
        <time>2017-07-11T15:22:32Z</time>
      </trkpt>
      <trkpt lat="49.03479" lon="7.69349">
        <ele>239.51</ele>
        <time>2017-07-11T15:22:41Z</time>
      </trkpt>
      <trkpt lat="49.03479" lon="7.69335">
        <ele>239.99</ele>
        <time>2017-07-11T15:22:49Z</time>
      </trkpt>
      <trkpt lat="49.03478" lon="7.69319">
        <ele>240.47</ele>
        <time>2017-07-11T15:22:58Z</time>
      </trkpt>
      <trkpt lat="49.03476" lon="7.69304">
        <ele>240.47</ele>
        <time>2017-07-11T15:23:07Z</time>
      </trkpt>
      <trkpt lat="49.03477" lon="7.69289">
        <ele>240.47</ele>
        <time>2017-07-11T15:23:16Z</time>
      </trkpt>
      <trkpt lat="49.03478" lon="7.69276">
        <ele>239.99</ele>
        <time>2017-07-11T15:23:31Z</time>
      </trkpt>
      <trkpt lat="49.03481" lon="7.69262">
        <ele>241.43</ele>
        <time>2017-07-11T15:23:39Z</time>
      </trkpt>
      <trkpt lat="49.03484" lon="7.69248">
        <ele>241.43</ele>
        <time>2017-07-11T15:23:48Z</time>
      </trkpt>
      <trkpt lat="49.03485" lon="7.69234">
        <ele>241.43</ele>
        <time>2017-07-11T15:23:55Z</time>
      </trkpt>
      <trkpt lat="49.03486" lon="7.69218">
        <ele>241.91</ele>
        <time>2017-07-11T15:24:04Z</time>
      </trkpt>
      <trkpt lat="49.03486" lon="7.69204">
        <ele>242.39</ele>
        <time>2017-07-11T15:24:11Z</time>
      </trkpt>
      <trkpt lat="49.03485" lon="7.69191">
        <ele>241.43</ele>
        <time>2017-07-11T15:24:18Z</time>
      </trkpt>
      <trkpt lat="49.03485" lon="7.69178">
        <ele>240.47</ele>
        <time>2017-07-11T15:24:32Z</time>
      </trkpt>
      <trkpt lat="49.03485" lon="7.69162">
        <ele>240.95</ele>
        <time>2017-07-11T15:24:40Z</time>
      </trkpt>
      <trkpt lat="49.03486" lon="7.69147">
        <ele>240.47</ele>
        <time>2017-07-11T15:24:47Z</time>
      </trkpt>
      <trkpt lat="49.03486" lon="7.69132">
        <ele>239.99</ele>
        <time>2017-07-11T15:24:56Z</time>
      </trkpt>
      <trkpt lat="49.03485" lon="7.69117">
        <ele>236.14</ele>
        <time>2017-07-11T15:25:04Z</time>
      </trkpt>
      <trkpt lat="49.03488" lon="7.69102">
        <ele>239.51</ele>
        <time>2017-07-11T15:25:16Z</time>
      </trkpt>
    </trkseg>
  </trk>
</gpx>